Observation data for Stamford on 03/24/2019      Previous  Date  Next       Current Mesonet Observations  Soil Data  Daily Summary Page  Observations in Plain Language
KST2 240500Z 16007KT 13/02 A2998 RMK A01 T01310017  RH  046%=      5-min Rain = 0
KST2 240501Z 16008KT 13/02 A2998 RMK A01 T01310016  RH  046%=      5-min Rain = 0
KST2 240502Z 16008KT 13/02 A2998 RMK A01 T01300019  RH  047%=      5-min Rain = 0
KST2 240503Z 16008KT 13/02 A2998 RMK A01 T01290019  RH  047%=      5-min Rain = 0
KST2 240504Z 16007KT 13/02 A2998 RMK A01 T01290020  RH  047%=      5-min Rain = 0
KST2 240505Z 16007KT 13/02 A2998 RMK A01 T01280021  RH  048%=      5-min Rain = 0
KST2 240506Z 16007KT 13/02 A2998 RMK A01 T01280020  RH  048%=      5-min Rain = 0
KST2 240507Z 16007KT 13/02 A2998 RMK A01 T01270020  RH  048%=      5-min Rain = 0
KST2 240508Z 17007KT 13/02 A2998 RMK A01 T01260020  RH  048%=      5-min Rain = 0
KST2 240509Z 16007KT 13/02 A2998 RMK A01 T01250020  RH  049%=      5-min Rain = 0
KST2 240510Z 17007KT 12/02 A2998 RMK A01 T01240022  RH  050%=      5-min Rain = 0
KST2 240511Z 17007KT 12/02 A2998 RMK A01 T01240024  RH  051%=      5-min Rain = 0
KST2 240512Z 17007KT 13/03 A2998 RMK A01 T01250026  RH  051%=      5-min Rain = 0
KST2 240513Z 17007KT 13/03 A2998 RMK A01 T01250029  RH  052%=      5-min Rain = 0
KST2 240514Z 17007KT 13/03 A2998 RMK A01 T01270034  RH  053%=      5-min Rain = 0
KST2 240515Z 17007KT 13/04 A2998 RMK A01 T01270037  RH  054%=      5-min Rain = 0
KST2 240516Z 17007KT 13/04 A2998 RMK A01 T01280041  RH  055%=      5-min Rain = 0
KST2 240517Z 17007KT 13/04 A2998 RMK A01 T01290042  RH  055%=      5-min Rain = 0
KST2 240518Z 17007KT 13/05 A2998 RMK A01 T01290047  RH  057%=      5-min Rain = 0
KST2 240519Z 17008KT 13/05 A2999 RMK A01 T01300050  RH  058%=      5-min Rain = 0
KST2 240520Z 17008KT 13/05 A2999 RMK A01 T01300053  RH  060%=      5-min Rain = 0
KST2 240521Z 17008KT 13/06 A2999 RMK A01 T01300055  RH  060%=      5-min Rain = 0
KST2 240522Z 17008KT 13/06 A2999 RMK A01 T01300059  RH  062%=      5-min Rain = 0
KST2 240523Z 17008KT 13/06 A2999 RMK A01 T01310064  RH  064%=      5-min Rain = 0
KST2 240524Z 17008KT 13/07 A2999 RMK A01 T01320069  RH  065%=      5-min Rain = 0
KST2 240525Z 17008KT 13/07 A2999 RMK A01 T01330072  RH  066%=      5-min Rain = 0
KST2 240526Z 17008KT 14/08 A2998 RMK A01 T01350075  RH  067%=      5-min Rain = 0
KST2 240527Z 17008KT 14/08 A2999 RMK A01 T01350075  RH  067%=      5-min Rain = 0
KST2 240528Z 17008KT 14/08 A2999 RMK A01 T01360077  RH  068%=      5-min Rain = 0
KST2 240529Z 17009KT 14/08 A2998 RMK A01 T01360079  RH  068%=      5-min Rain = 0
KST2 240530Z 17009KT 14/08 A2999 RMK A01 T01370081  RH  069%=      5-min Rain = 0
KST2 240531Z 17008KT 14/08 A2998 RMK A01 T01380081  RH  068%=      5-min Rain = 0
KST2 240532Z 17009KT 14/08 A2998 RMK A01 T01380082  RH  069%=      5-min Rain = 0
KST2 240533Z 17009KT 14/08 A2998 RMK A01 T01380084  RH  070%=      5-min Rain = 0
KST2 240534Z 17009KT 14/08 A2998 RMK A01 T01370083  RH  070%=      5-min Rain = 0
KST2 240535Z 17009KT 14/09 A2998 RMK A01 T01370085  RH  070%=      5-min Rain = 0
KST2 240536Z 17009KT 14/09 A2998 RMK A01 T01370087  RH  071%=      5-min Rain = 0
KST2 240537Z 17009KT 14/09 A2998 RMK A01 T01380087  RH  072%=      5-min Rain = 0
KST2 240538Z 17009KT 14/09 A2998 RMK A01 T01380087  RH  071%=      5-min Rain = 0
KST2 240539Z 17009KT 14/09 A2998 RMK A01 T01380088  RH  072%=      5-min Rain = 0
KST2 240540Z 17008KT 14/09 A2998 RMK A01 T01380088  RH  072%=      5-min Rain = 0
KST2 240541Z 17008KT 14/09 A2998 RMK A01 T01380089  RH  072%=      5-min Rain = 0
KST2 240542Z 17008KT 14/09 A2998 RMK A01 T01380089  RH  072%=      5-min Rain = 0
KST2 240543Z 17008KT 14/09 A2999 RMK A01 T01380089  RH  072%=      5-min Rain = 0
KST2 240544Z 17008KT 14/09 A2999 RMK A01 T01380090  RH  073%=      5-min Rain = 0
KST2 240545Z 17008KT 14/09 A2999 RMK A01 T01380089  RH  072%=      5-min Rain = 0
KST2 240546Z 17008KT 14/09 A2999 RMK A01 T01370089  RH  073%=      5-min Rain = 0
KST2 240547Z 17008KT 14/09 A2998 RMK A01 T01370091  RH  073%=      5-min Rain = 0
KST2 240548Z 17008KT 14/09 A2998 RMK A01 T01380091  RH  074%=      5-min Rain = 0
KST2 240549Z 17008KT 14/09 A2998 RMK A01 T01370092  RH  074%=      5-min Rain = 0
KST2 240550Z 17008KT 14/09 A2998 RMK A01 T01370091  RH  074%=      5-min Rain = 0
KST2 240551Z 18009KT 14/09 A2998 RMK A01 T01380090  RH  073%=      5-min Rain = 0
KST2 240552Z 17009KT 14/09 A2998 RMK A01 T01370092  RH  074%=      5-min Rain = 0
KST2 240553Z 17009KT 14/09 A2998 RMK A01 T01370093  RH  075%=      5-min Rain = 0
KST2 240554Z 17009KT 14/09 A2998 RMK A01 T01370094  RH  075%=      5-min Rain = 0
KST2 240555Z 18008KT 14/09 A2998 RMK A01 T01370094  RH  075%=      5-min Rain = 0
KST2 240556Z 18007KT 14/10 A2998 RMK A01 T01380095  RH  075%=      5-min Rain = 0
KST2 240557Z 18008KT 14/10 A2998 RMK A01 T01380096  RH  076%=      5-min Rain = 0
KST2 240558Z 18008KT 14/10 A2999 RMK A01 T01380097  RH  076%=      5-min Rain = 0
KST2 240559Z 17009KT 14/10 A2998 RMK A01 T01370095  RH  076%=      5-min Rain = 0
KST2 240600Z 17010KT 14/10 A2998 RMK A01 T01370095  RH  076%=      5-min Rain = 0
KST2 240601Z 17010KT 14/10 A2998 RMK A01 T01370096  RH  076%=      5-min Rain = 0
KST2 240602Z 17010KT 14/10 A2998 RMK A01 T01370096  RH  076%=      5-min Rain = 0
KST2 240603Z 17010KT 14/10 A2998 RMK A01 T01370097  RH  076%=      5-min Rain = 0
KST2 240604Z 17009KT 14/10 A2998 RMK A01 T01370098  RH  077%=      5-min Rain = 0
KST2 240605Z 17009KT 14/10 A2998 RMK A01 T01380098  RH  077%=      5-min Rain = 0
KST2 240606Z 17009KT 14/10 A2998 RMK A01 T01370098  RH  077%=      5-min Rain = 0
KST2 240607Z 17010KT 14/10 A2998 RMK A01 T01370099  RH  077%=      5-min Rain = 0
KST2 240608Z 17010KT 14/10 A2998 RMK A01 T01380100  RH  078%=      5-min Rain = 0
KST2 240609Z 18010KT 14/10 A2998 RMK A01 T01380101  RH  078%=      5-min Rain = 0
KST2 240610Z 18009KT 14/10 A2998 RMK A01 T01390103  RH  079%=      5-min Rain = 0
KST2 240611Z 18010KT 14/10 A2998 RMK A01 T01390104  RH  079%=      5-min Rain = 0
KST2 240612Z 17010KT 14/11 A2998 RMK A01 T01400105  RH  080%=      5-min Rain = 0
KST2 240613Z 17010KT 14/11 A2998 RMK A01 T01400105  RH  080%=      5-min Rain = 0
KST2 240614Z 17010KT 14/10 A2998 RMK A01 T01400104  RH  079%=      5-min Rain = 0
KST2 240615Z 17009KT 14/10 A2998 RMK A01 T01400104  RH  079%=      5-min Rain = 0
KST2 240616Z 17010KT 14/11 A2998 RMK A01 T01400105  RH  079%=      5-min Rain = 0
KST2 240617Z 17011KT 14/11 A2998 RMK A01 T01400106  RH  080%=      5-min Rain = 0
KST2 240618Z 17012KT 14/11 A2998 RMK A01 T01410107  RH  080%=      5-min Rain = 0
KST2 240619Z 17012KT 14/11 A2998 RMK A01 T01410107  RH  080%=      5-min Rain = 0
KST2 240620Z 17013KT 14/11 A2998 RMK A01 T01420109  RH  081%=      5-min Rain = 0
KST2 240621Z 17012KT 14/11 A2998 RMK A01 T01430111  RH  081%=      5-min Rain = 0
KST2 240622Z 17013KT 14/11 A2998 RMK A01 T01440111  RH  080%=      5-min Rain = 0
KST2 240623Z 17012KT 14/11 A2998 RMK A01 T01440111  RH  080%=      5-min Rain = 0
KST2 240624Z 17012KT 14/11 A2998 RMK A01 T01440112  RH  081%=      5-min Rain = 0
KST2 240625Z 17011KT 15/11 A2998 RMK A01 T01450112  RH  081%=      5-min Rain = 0
KST2 240626Z 17011KT 15/11 A2998 RMK A01 T01450111  RH  080%=      5-min Rain = 0
KST2 240627Z 17010KT 14/11 A2998 RMK A01 T01440112  RH  081%=      5-min Rain = 0
KST2 240628Z 17010KT 14/11 A2998 RMK A01 T01440112  RH  081%=      5-min Rain = 0
KST2 240629Z 17012KT 14/11 A2998 RMK A01 T01440113  RH  082%=      5-min Rain = 0
KST2 240630Z 17010KT 14/11 A2998 RMK A01 T01440112  RH  081%=      5-min Rain = 0
KST2 240631Z 17011KT 14/11 A2998 RMK A01 T01440112  RH  081%=      5-min Rain = 0
KST2 240632Z 17011KT 14/12 A2998 RMK A01 T01440115  RH  083%=      5-min Rain = 0
KST2 240633Z 18010KT 15/11 A2998 RMK A01 T01450114  RH  081%=      5-min Rain = 0
KST2 240634Z 17010KT 15/11 A2998 RMK A01 T01450114  RH  081%=      5-min Rain = 0
KST2 240635Z 18011KT 15/11 A2998 RMK A01 T01450114  RH  082%=      5-min Rain = 0
KST2 240636Z 18012KT 15/12 A2998 RMK A01 T01450115  RH  082%=      5-min Rain = 0
KST2 240637Z 18011KT 15/12 A2998 RMK A01 T01450115  RH  082%=      5-min Rain = 0
KST2 240638Z 18011KT 15/12 A2998 RMK A01 T01450115  RH  082%=      5-min Rain = 0
KST2 240639Z 18011KT 15/12 A2998 RMK A01 T01450116  RH  083%=      5-min Rain = 0
KST2 240640Z 18011KT 15/12 A2998 RMK A01 T01450116  RH  083%=      5-min Rain = 0
KST2 240641Z 18011KT 15/12 A2998 RMK A01 T01450116  RH  082%=      5-min Rain = 0
KST2 240642Z 18010KT 15/12 A2998 RMK A01 T01450116  RH  082%=      5-min Rain = 0
KST2 240643Z 18011KT 15/12 A2998 RMK A01 T01450116  RH  083%=      5-min Rain = 0
KST2 240644Z 18011KT 15/12 A2998 RMK A01 T01450117  RH  083%=      5-min Rain = 0
KST2 240645Z 18010KT 15/12 A2998 RMK A01 T01450115  RH  082%=      5-min Rain = 0
KST2 240646Z 17010KT 14/12 A2998 RMK A01 T01440115  RH  083%=      5-min Rain = 0
KST2 240647Z 18010KT 15/12 A2998 RMK A01 T01450116  RH  083%=      5-min Rain = 0
KST2 240648Z 18009KT 14/12 A2998 RMK A01 T01440115  RH  083%=      5-min Rain = 0
KST2 240649Z 18009KT 14/12 A2998 RMK A01 T01440116  RH  083%=      5-min Rain = 0
KST2 240650Z 18010KT 14/12 A2998 RMK A01 T01440116  RH  083%=      5-min Rain = 0
KST2 240651Z 18010KT 14/12 A2998 RMK A01 T01440117  RH  084%=      5-min Rain = 0
KST2 240652Z 18010KT 14/12 A2998 RMK A01 T01440117  RH  084%=      5-min Rain = 0
KST2 240653Z 18010KT 14/12 A2998 RMK A01 T01440116  RH  084%=      5-min Rain = 0
KST2 240654Z 18009KT 14/12 A2998 RMK A01 T01440116  RH  084%=      5-min Rain = 0
KST2 240655Z 18010KT 14/12 A2998 RMK A01 T01430116  RH  084%=      5-min Rain = 0
KST2 240656Z 18009KT 14/12 A2998 RMK A01 T01430116  RH  084%=      5-min Rain = 0
KST2 240657Z 18010KT 14/12 A2998 RMK A01 T01430116  RH  084%=      5-min Rain = 0
KST2 240658Z 18010KT 14/12 A2998 RMK A01 T01430117  RH  085%=      5-min Rain = 0
KST2 240659Z 18010KT 14/12 A2998 RMK A01 T01430117  RH  084%=      5-min Rain = 0
KST2 240700Z 18010KT 14/12 A2998 RMK A01 T01430118  RH  085%=      5-min Rain = 0
KST2 240701Z 18011KT 14/12 A2998 RMK A01 T01430119  RH  085%=      5-min Rain = 0
KST2 240702Z 18011KT 14/12 A2998 RMK A01 T01440119  RH  085%=      5-min Rain = 0
KST2 240703Z 18011KT 15/12 A2998 RMK A01 T01450121  RH  085%=      5-min Rain = 0
KST2 240704Z 18011KT 15/12 A2998 RMK A01 T01460122  RH  085%=      5-min Rain = 0
KST2 240705Z 19011KT 15/12 A2998 RMK A01 T01470122  RH  085%=      5-min Rain = 0
KST2 240706Z 18010KT 15/12 A2998 RMK A01 T01470121  RH  085%=      5-min Rain = 0
KST2 240707Z 18011KT 15/12 A2998 RMK A01 T01460121  RH  085%=      5-min Rain = 0
KST2 240708Z 18011KT 15/12 A2998 RMK A01 T01450120  RH  085%=      5-min Rain = 0
KST2 240709Z 18012KT 15/12 A2998 RMK A01 T01450120  RH  085%=      5-min Rain = 0
KST2 240710Z 18012KT 15/12 A2998 RMK A01 T01450120  RH  085%=      5-min Rain = 0
KST2 240711Z 18012KT 15/12 A2998 RMK A01 T01450119  RH  084%=      5-min Rain = 0
KST2 240712Z 18012KT 15/12 A2998 RMK A01 T01450119  RH  084%=      5-min Rain = 0
KST2 240713Z 18013KT 15/12 A2998 RMK A01 T01450119  RH  084%=      5-min Rain = 0
KST2 240714Z 18012KT 15/12 A2998 RMK A01 T01460120  RH  085%=      5-min Rain = 0
KST2 240715Z 19011KT 15/12 A2998 RMK A01 T01460121  RH  085%=      5-min Rain = 0
KST2 240716Z 19009KT 15/12 A2998 RMK A01 T01460121  RH  085%=      5-min Rain = 0
KST2 240717Z 19009KT 15/12 A2998 RMK A01 T01460121  RH  085%=      5-min Rain = 0
KST2 240718Z 19009KT 15/12 A2998 RMK A01 T01460120  RH  084%=      5-min Rain = 0
KST2 240719Z 19008KT 15/12 A2998 RMK A01 T01460120  RH  084%=      5-min Rain = 0
KST2 240720Z 19008KT 14/12 A2998 RMK A01 T01440118  RH  084%=      5-min Rain = 0
KST2 240721Z 19008KT 14/12 A2998 RMK A01 T01430118  RH  085%=      5-min Rain = 0
KST2 240722Z 18009KT 14/12 A2998 RMK A01 T01420117  RH  085%=      5-min Rain = 0
KST2 240723Z 18008KT 14/12 A2998 RMK A01 T01420118  RH  086%=      5-min Rain = 0
KST2 240724Z 18009KT 14/12 A2998 RMK A01 T01420118  RH  086%=      5-min Rain = 0
KST2 240725Z 18009KT 14/12 A2998 RMK A01 T01420118  RH  086%=      5-min Rain = 0
KST2 240726Z 19009KT 14/12 A2998 RMK A01 T01410118  RH  086%=      5-min Rain = 0
KST2 240727Z 19009KT 14/12 A2998 RMK A01 T01410119  RH  086%=      5-min Rain = 0
KST2 240728Z 19009KT 14/12 A2998 RMK A01 T01410118  RH  086%=      5-min Rain = 0
KST2 240729Z 19009KT 14/12 A2998 RMK A01 T01410118  RH  086%=      5-min Rain = 0
KST2 240730Z 19009KT 14/12 A2998 RMK A01 T01410117  RH  086%=      5-min Rain = 0
KST2 240731Z 19009KT 14/12 A2998 RMK A01 T01400117  RH  086%=      5-min Rain = 0
KST2 240732Z 19009KT 14/12 A2998 RMK A01 T01400117  RH  086%=      5-min Rain = 0
KST2 240733Z 19009KT 14/12 A2998 RMK A01 T01390117  RH  086%=      5-min Rain = 0
KST2 240734Z 19009KT 14/12 A2997 RMK A01 T01390117  RH  086%=      5-min Rain = 0
KST2 240735Z 19009KT 14/12 A2997 RMK A01 T01390117  RH  087%=      5-min Rain = 0
KST2 240736Z 19008KT 14/12 A2997 RMK A01 T01390117  RH  087%=      5-min Rain = 0
KST2 240737Z 19008KT 14/12 A2997 RMK A01 T01380116  RH  086%=      5-min Rain = 0
KST2 240738Z 18009KT 14/12 A2997 RMK A01 T01380116  RH  087%=      5-min Rain = 0
KST2 240739Z 18009KT 14/12 A2997 RMK A01 T01380116  RH  087%=      5-min Rain = 0
KST2 240740Z 19009KT 14/12 A2997 RMK A01 T01380117  RH  087%=      5-min Rain = 0
KST2 240741Z 19008KT 14/12 A2997 RMK A01 T01380116  RH  086%=      5-min Rain = 0
KST2 240742Z 19008KT 14/12 A2997 RMK A01 T01380115  RH  086%=      5-min Rain = 0
KST2 240743Z 19008KT 14/11 A2997 RMK A01 T01380114  RH  086%=      5-min Rain = 0
KST2 240744Z 19009KT 14/11 A2997 RMK A01 T01360113  RH  086%=      5-min Rain = 0
KST2 240745Z 19009KT 14/11 A2997 RMK A01 T01360114  RH  086%=      5-min Rain = 0
KST2 240746Z 19009KT 14/11 A2997 RMK A01 T01360114  RH  086%=      5-min Rain = 0
KST2 240747Z 19009KT 14/11 A2997 RMK A01 T01360113  RH  086%=      5-min Rain = 0
KST2 240748Z 18009KT 14/11 A2997 RMK A01 T01360113  RH  086%=      5-min Rain = 0
KST2 240749Z 18009KT 14/11 A2997 RMK A01 T01360113  RH  086%=      5-min Rain = 0
KST2 240750Z 18010KT 14/11 A2997 RMK A01 T01370114  RH  086%=      5-min Rain = 0
KST2 240751Z 18010KT 14/11 A2998 RMK A01 T01370114  RH  086%=      5-min Rain = 0
KST2 240752Z 18010KT 14/11 A2998 RMK A01 T01370113  RH  085%=      5-min Rain = 0
KST2 240753Z 18010KT 14/11 A2998 RMK A01 T01380113  RH  085%=      5-min Rain = 0
KST2 240754Z 18009KT 14/11 A2998 RMK A01 T01380114  RH  085%=      5-min Rain = 0
KST2 240755Z 18009KT 14/11 A2998 RMK A01 T01390113  RH  084%=      5-min Rain = 0
KST2 240756Z 18009KT 14/11 A2998 RMK A01 T01390113  RH  084%=      5-min Rain = 0
KST2 240757Z 18009KT 14/11 A2997 RMK A01 T01400114  RH  084%=      5-min Rain = 0
KST2 240758Z 18009KT 14/11 A2998 RMK A01 T01390113  RH  084%=      5-min Rain = 0
KST2 240759Z 18009KT 14/11 A2997 RMK A01 T01390112  RH  084%=      5-min Rain = 0
KST2 240800Z 18008KT 14/11 A2998 RMK A01 T01390114  RH  084%=      5-min Rain = 0
KST2 240801Z 18009KT 14/11 A2998 RMK A01 T01390114  RH  085%=      5-min Rain = 0
KST2 240802Z 19008KT 14/11 A2998 RMK A01 T01390114  RH  085%=      5-min Rain = 0
KST2 240803Z 19008KT 14/11 A2998 RMK A01 T01390114  RH  085%=      5-min Rain = 0
KST2 240804Z 19008KT 14/11 A2998 RMK A01 T01390114  RH  085%=      5-min Rain = 0
KST2 240805Z 19008KT 14/11 A2998 RMK A01 T01390113  RH  085%=      5-min Rain = 0
KST2 240806Z 19008KT 14/11 A2998 RMK A01 T01380113  RH  085%=      5-min Rain = 0
KST2 240807Z 19007KT 14/11 A2998 RMK A01 T01380113  RH  085%=      5-min Rain = 0
KST2 240808Z 19008KT 14/11 A2998 RMK A01 T01380113  RH  085%=      5-min Rain = 0
KST2 240809Z 19008KT 14/11 A2997 RMK A01 T01370112  RH  085%=      5-min Rain = 0
KST2 240810Z 19008KT 14/11 A2997 RMK A01 T01370112  RH  085%=      5-min Rain = 0
KST2 240811Z 19008KT 14/11 A2997 RMK A01 T01360112  RH  085%=      5-min Rain = 0
KST2 240812Z 19008KT 14/11 A2997 RMK A01 T01360112  RH  085%=      5-min Rain = 0
KST2 240813Z 19008KT 14/11 A2997 RMK A01 T01360112  RH  085%=      5-min Rain = 0
KST2 240814Z 19008KT 14/11 A2997 RMK A01 T01360112  RH  085%=      5-min Rain = 0
KST2 240815Z 19008KT 14/11 A2997 RMK A01 T01360111  RH  085%=      5-min Rain = 0
KST2 240816Z 19008KT 14/11 A2997 RMK A01 T01360111  RH  085%=      5-min Rain = 0
KST2 240817Z 19008KT 14/11 A2997 RMK A01 T01360111  RH  085%=      5-min Rain = 0
KST2 240818Z 19007KT 14/11 A2997 RMK A01 T01350111  RH  085%=      5-min Rain = 0
KST2 240819Z 19007KT 14/11 A2997 RMK A01 T01350111  RH  085%=      5-min Rain = 0
KST2 240820Z 19007KT 14/11 A2997 RMK A01 T01350111  RH  086%=      5-min Rain = 0
KST2 240821Z 19008KT 14/11 A2997 RMK A01 T01350111  RH  086%=      5-min Rain = 0
KST2 240822Z 19007KT 14/11 A2997 RMK A01 T01350111  RH  086%=      5-min Rain = 0
KST2 240823Z 19007KT 14/11 A2997 RMK A01 T01350111  RH  085%=      5-min Rain = 0
KST2 240824Z 19007KT 14/11 A2997 RMK A01 T01350111  RH  086%=      5-min Rain = 0
KST2 240825Z 19007KT 14/11 A2997 RMK A01 T01350111  RH  086%=      5-min Rain = 0
KST2 240826Z 19007KT 13/11 A2997 RMK A01 T01340111  RH  086%=      5-min Rain = 0
KST2 240827Z 19007KT 13/11 A2997 RMK A01 T01340111  RH  086%=      5-min Rain = 0
KST2 240828Z 19007KT 13/11 A2997 RMK A01 T01340111  RH  086%=      5-min Rain = 0
KST2 240829Z 19007KT 13/11 A2997 RMK A01 T01340110  RH  086%=      5-min Rain = 0
KST2 240830Z 19007KT 13/11 A2997 RMK A01 T01340110  RH  086%=      5-min Rain = 0
KST2 240831Z 19007KT 13/11 A2997 RMK A01 T01330110  RH  086%=      5-min Rain = 0
KST2 240832Z 19007KT 13/11 A2997 RMK A01 T01330110  RH  086%=      5-min Rain = 0
KST2 240833Z 19007KT 13/11 A2997 RMK A01 T01330109  RH  085%=      5-min Rain = 0
KST2 240834Z 18007KT 13/11 A2997 RMK A01 T01330110  RH  086%=      5-min Rain = 0
KST2 240835Z 19007KT 13/11 A2997 RMK A01 T01330110  RH  086%=      5-min Rain = 0
KST2 240836Z 19007KT 13/11 A2997 RMK A01 T01330110  RH  086%=      5-min Rain = 0
KST2 240837Z 19007KT 13/11 A2997 RMK A01 T01330109  RH  085%=      5-min Rain = 0
KST2 240838Z 19007KT 13/11 A2997 RMK A01 T01330109  RH  086%=      5-min Rain = 0
KST2 240839Z 19007KT 13/11 A2997 RMK A01 T01320109  RH  085%=      5-min Rain = 0
KST2 240840Z 19007KT 13/11 A2997 RMK A01 T01320108  RH  085%=      5-min Rain = 0
KST2 240841Z 19007KT 13/11 A2997 RMK A01 T01320108  RH  085%=      5-min Rain = 0
KST2 240842Z 19006KT 13/11 A2997 RMK A01 T01310108  RH  086%=      5-min Rain = 0
KST2 240843Z 19006KT 13/11 A2997 RMK A01 T01310107  RH  085%=      5-min Rain = 0
KST2 240844Z 19006KT 13/11 A2997 RMK A01 T01310107  RH  085%=      5-min Rain = 0
KST2 240845Z 19007KT 13/11 A2997 RMK A01 T01310107  RH  085%=      5-min Rain = 0
KST2 240846Z 19006KT 13/11 A2997 RMK A01 T01310107  RH  085%=      5-min Rain = 0
KST2 240847Z 19007KT 13/11 A2997 RMK A01 T01310107  RH  085%=      5-min Rain = 0
KST2 240848Z 19007KT 13/11 A2997 RMK A01 T01310106  RH  085%=      5-min Rain = 0
KST2 240849Z 19007KT 13/11 A2997 RMK A01 T01310106  RH  085%=      5-min Rain = 0
KST2 240850Z 19006KT 13/11 A2997 RMK A01 T01310106  RH  085%=      5-min Rain = 0
KST2 240851Z 19006KT 13/11 A2997 RMK A01 T01310106  RH  085%=      5-min Rain = 0
KST2 240852Z 19006KT 13/11 A2997 RMK A01 T01300105  RH  085%=      5-min Rain = 0
KST2 240853Z 20006KT 13/10 A2997 RMK A01 T01300104  RH  084%=      5-min Rain = 0
KST2 240854Z 19007KT 13/10 A2997 RMK A01 T01290104  RH  085%=      5-min Rain = 0
KST2 240855Z 20007KT 13/10 A2997 RMK A01 T01290104  RH  085%=      5-min Rain = 0
KST2 240856Z 20007KT 13/10 A2997 RMK A01 T01290104  RH  085%=      5-min Rain = 0
KST2 240857Z 20007KT 13/10 A2997 RMK A01 T01290104  RH  085%=      5-min Rain = 0
KST2 240858Z 20007KT 13/10 A2997 RMK A01 T01290104  RH  085%=      5-min Rain = 0
KST2 240859Z 20007KT 13/11 A2997 RMK A01 T01290105  RH  085%=      5-min Rain = 0
KST2 240900Z 19008KT 13/11 A2997 RMK A01 T01290105  RH  085%=      5-min Rain = 0
KST2 240901Z 20007KT 13/11 A2997 RMK A01 T01300106  RH  086%=      5-min Rain = 0
KST2 240902Z 20008KT 13/11 A2997 RMK A01 T01300106  RH  085%=      5-min Rain = 0
KST2 240903Z 20007KT 13/11 A2997 RMK A01 T01310106  RH  085%=      5-min Rain = 0
KST2 240904Z 20007KT 13/11 A2997 RMK A01 T01320107  RH  085%=      5-min Rain = 0
KST2 240905Z 20008KT 13/11 A2997 RMK A01 T01320107  RH  085%=      5-min Rain = 0
KST2 240906Z 20008KT 13/11 A2997 RMK A01 T01330108  RH  085%=      5-min Rain = 0
KST2 240907Z 20008KT 13/11 A2997 RMK A01 T01340108  RH  085%=      5-min Rain = 0
KST2 240908Z 20008KT 13/11 A2997 RMK A01 T01340108  RH  084%=      5-min Rain = 0
KST2 240909Z 20009KT 13/11 A2997 RMK A01 T01340108  RH  084%=      5-min Rain = 0
KST2 240910Z 19008KT 13/11 A2997 RMK A01 T01340109  RH  085%=      5-min Rain = 0
KST2 240911Z 19008KT 14/11 A2997 RMK A01 T01350109  RH  084%=      5-min Rain = 0
KST2 240912Z 19008KT 14/11 A2998 RMK A01 T01360110  RH  084%=      5-min Rain = 0
KST2 240913Z 20008KT 14/11 A2998 RMK A01 T01360110  RH  084%=      5-min Rain = 0
KST2 240914Z 20008KT 14/11 A2998 RMK A01 T01360110  RH  084%=      5-min Rain = 0
KST2 240915Z 20008KT 14/11 A2998 RMK A01 T01360110  RH  084%=      5-min Rain = 0
KST2 240916Z 19009KT 14/11 A2998 RMK A01 T01370111  RH  084%=      5-min Rain = 0
KST2 240917Z 19008KT 14/11 A2998 RMK A01 T01370111  RH  084%=      5-min Rain = 0
KST2 240918Z 19008KT 14/11 A2998 RMK A01 T01380111  RH  084%=      5-min Rain = 0
KST2 240919Z 19008KT 14/11 A2998 RMK A01 T01370111  RH  084%=      5-min Rain = 0
KST2 240920Z 19008KT 14/11 A2998 RMK A01 T01370112  RH  084%=      5-min Rain = 0
KST2 240921Z 19008KT 14/11 A2998 RMK A01 T01380112  RH  084%=      5-min Rain = 0
KST2 240922Z 19007KT 14/11 A2998 RMK A01 T01380112  RH  084%=      5-min Rain = 0
KST2 240923Z 19008KT 14/11 A2998 RMK A01 T01380112  RH  084%=      5-min Rain = 0
KST2 240924Z 19008KT 14/11 A2998 RMK A01 T01380113  RH  085%=      5-min Rain = 0
KST2 240925Z 19008KT 14/11 A2998 RMK A01 T01380113  RH  084%=      5-min Rain = 0
KST2 240926Z 19008KT 14/11 A2998 RMK A01 T01390113  RH  084%=      5-min Rain = 0
KST2 240927Z 19008KT 14/11 A2998 RMK A01 T01390113  RH  084%=      5-min Rain = 0
KST2 240928Z 19008KT 14/11 A2998 RMK A01 T01390113  RH  084%=      5-min Rain = 0
KST2 240929Z 19008KT 14/11 A2998 RMK A01 T01390113  RH  084%=      5-min Rain = 0
KST2 240930Z 19008KT 14/11 A2998 RMK A01 T01380112  RH  084%=      5-min Rain = 0
KST2 240931Z 19007KT 14/11 A2998 RMK A01 T01380113  RH  085%=      5-min Rain = 0
KST2 240932Z 19008KT 14/11 A2998 RMK A01 T01390113  RH  085%=      5-min Rain = 0
KST2 240933Z 19007KT 14/11 A2998 RMK A01 T01380113  RH  085%=      5-min Rain = 0
KST2 240934Z 19008KT 14/11 A2998 RMK A01 T01380113  RH  085%=      5-min Rain = 0
KST2 240935Z 19007KT 14/11 A2998 RMK A01 T01390114  RH  085%=      5-min Rain = 0
KST2 240936Z 19007KT 14/11 A2998 RMK A01 T01390113  RH  085%=      5-min Rain = 0
KST2 240937Z 19007KT 14/11 A2998 RMK A01 T01380113  RH  085%=      5-min Rain = 0
KST2 240938Z 19007KT 14/11 A2998 RMK A01 T01380113  RH  085%=      5-min Rain = 0
KST2 240939Z 19008KT 14/11 A2998 RMK A01 T01380113  RH  085%=      5-min Rain = 0
KST2 240940Z 19008KT 14/11 A2998 RMK A01 T01380114  RH  085%=      5-min Rain = 0
KST2 240941Z 19007KT 14/11 A2998 RMK A01 T01380113  RH  085%=      5-min Rain = 0
KST2 240942Z 19007KT 14/11 A2998 RMK A01 T01380114  RH  085%=      5-min Rain = 0
KST2 240943Z 19007KT 14/11 A2998 RMK A01 T01380113  RH  085%=      5-min Rain = 0
KST2 240944Z 20007KT 14/11 A2998 RMK A01 T01380113  RH  085%=      5-min Rain = 0
KST2 240945Z 19007KT 14/11 A2998 RMK A01 T01370113  RH  085%=      5-min Rain = 0
KST2 240946Z 19007KT 14/11 A2998 RMK A01 T01360112  RH  085%=      5-min Rain = 0
KST2 240947Z 19007KT 14/11 A2998 RMK A01 T01370113  RH  086%=      5-min Rain = 0
KST2 240948Z 19006KT 14/11 A2998 RMK A01 T01360112  RH  085%=      5-min Rain = 0
KST2 240949Z 19007KT 14/11 A2998 RMK A01 T01350112  RH  086%=      5-min Rain = 0
KST2 240950Z 19007KT 14/11 A2998 RMK A01 T01350113  RH  086%=      5-min Rain = 0
KST2 240951Z 19007KT 14/11 A2998 RMK A01 T01350112  RH  086%=      5-min Rain = 0
KST2 240952Z 19006KT 14/11 A2998 RMK A01 T01350113  RH  086%=      5-min Rain = 0
KST2 240953Z 19007KT 14/11 A2998 RMK A01 T01360114  RH  086%=      5-min Rain = 0
KST2 240954Z 19006KT 14/11 A2998 RMK A01 T01360114  RH  087%=      5-min Rain = 0
KST2 240955Z 19007KT 14/11 A2998 RMK A01 T01360113  RH  086%=      5-min Rain = 0
KST2 240956Z 19007KT 14/11 A2998 RMK A01 T01360113  RH  086%=      5-min Rain = 0
KST2 240957Z 19007KT 14/11 A2998 RMK A01 T01350112  RH  086%=      5-min Rain = 0
KST2 240958Z 19007KT 14/11 A2998 RMK A01 T01350113  RH  086%=      5-min Rain = 0
KST2 240959Z 19007KT 13/11 A2998 RMK A01 T01340113  RH  087%=      5-min Rain = 0
KST2 241000Z 19007KT 13/11 A2998 RMK A01 T01340113  RH  087%=      5-min Rain = 0
KST2 241001Z 19007KT 13/11 A2998 RMK A01 T01340113  RH  087%=      5-min Rain = 0
KST2 241002Z 19008KT 13/11 A2998 RMK A01 T01340113  RH  087%=      5-min Rain = 0
KST2 241003Z 19007KT 14/11 A2998 RMK A01 T01350114  RH  087%=      5-min Rain = 0
KST2 241004Z 19007KT 14/11 A2998 RMK A01 T01350114  RH  087%=      5-min Rain = 0
KST2 241005Z 19007KT 14/11 A2998 RMK A01 T01350114  RH  087%=      5-min Rain = 0
KST2 241006Z 19007KT 14/11 A2998 RMK A01 T01350114  RH  087%=      5-min Rain = 0
KST2 241007Z 19007KT 14/12 A2998 RMK A01 T01360115  RH  087%=      5-min Rain = 0
KST2 241008Z 19008KT 14/11 A2998 RMK A01 T01360114  RH  087%=      5-min Rain = 0
KST2 241009Z 19007KT 14/11 A2998 RMK A01 T01360114  RH  087%=      5-min Rain = 0
KST2 241010Z 19007KT 14/12 A2998 RMK A01 T01360115  RH  087%=      5-min Rain = 0
KST2 241011Z 19007KT 14/12 A2998 RMK A01 T01360115  RH  087%=      5-min Rain = 0
KST2 241012Z 19007KT 14/12 A2998 RMK A01 T01360115  RH  087%=      5-min Rain = 0
KST2 241013Z 19007KT 14/12 A2998 RMK A01 T01350115  RH  087%=      5-min Rain = 0
KST2 241014Z 19007KT 14/12 A2998 RMK A01 T01350115  RH  088%=      5-min Rain = 0
KST2 241015Z 19007KT 14/12 A2998 RMK A01 T01350115  RH  088%=      5-min Rain = 0
KST2 241016Z 19007KT 14/11 A2998 RMK A01 T01350114  RH  087%=      5-min Rain = 0
KST2 241017Z 19008KT 14/11 A2998 RMK A01 T01350114  RH  087%=      5-min Rain = 0
KST2 241018Z 19007KT 13/11 A2998 RMK A01 T01340114  RH  088%=      5-min Rain = 0
KST2 241019Z 19007KT 13/11 A2998 RMK A01 T01340114  RH  088%=      5-min Rain = 0
KST2 241020Z 19007KT 13/12 A2998 RMK A01 T01340115  RH  088%=      5-min Rain = 0
KST2 241021Z 19007KT 13/11 A2998 RMK A01 T01340114  RH  088%=      5-min Rain = 0
KST2 241022Z 19007KT 13/12 A2998 RMK A01 T01340115  RH  088%=      5-min Rain = 0
KST2 241023Z 19007KT 13/11 A2998 RMK A01 T01330114  RH  088%=      5-min Rain = 0
KST2 241024Z 19007KT 13/11 A2998 RMK A01 T01330114  RH  088%=      5-min Rain = 0
KST2 241025Z 19008KT 13/11 A2998 RMK A01 T01330114  RH  088%=      5-min Rain = 0
KST2 241026Z 19007KT 13/11 A2998 RMK A01 T01330114  RH  089%=      5-min Rain = 0
KST2 241027Z 19007KT 13/11 A2998 RMK A01 T01330114  RH  089%=      5-min Rain = 0
KST2 241028Z 20008KT 13/11 A2998 RMK A01 T01320114  RH  089%=      5-min Rain = 0
KST2 241029Z 20008KT 13/11 A2998 RMK A01 T01320113  RH  089%=      5-min Rain = 0
KST2 241030Z 20008KT 13/11 A2998 RMK A01 T01310114  RH  089%=      5-min Rain = 0
KST2 241031Z 20008KT 13/11 A2998 RMK A01 T01320114  RH  089%=      5-min Rain = 0
KST2 241032Z 20008KT 13/12 A2998 RMK A01 T01320115  RH  090%=      5-min Rain = 0
KST2 241033Z 20008KT 13/12 A2998 RMK A01 T01320115  RH  090%=      5-min Rain = 0
KST2 241034Z 20008KT 13/12 A2998 RMK A01 T01320115  RH  089%=      5-min Rain = 0
KST2 241035Z 20008KT 13/12 A2998 RMK A01 T01320115  RH  089%=      5-min Rain = 0
KST2 241036Z 20009KT 13/12 A2998 RMK A01 T01320116  RH  090%=      5-min Rain = 0
KST2 241037Z 20009KT 13/12 A2998 RMK A01 T01320116  RH  090%=      5-min Rain = 0
KST2 241038Z 19009KT 13/12 A2998 RMK A01 T01320116  RH  090%=      5-min Rain = 0
KST2 241039Z 19009KT 13/12 A2998 RMK A01 T01320116  RH  090%=      5-min Rain = 0
KST2 241040Z 20009KT 13/12 A2998 RMK A01 T01330118  RH  090%=      5-min Rain = 0
KST2 241041Z 19009KT 13/12 A2998 RMK A01 T01330117  RH  090%=      5-min Rain = 0
KST2 241042Z 19009KT 13/12 A2998 RMK A01 T01330118  RH  090%=      5-min Rain = 0
KST2 241043Z 19008KT 13/12 A2998 RMK A01 T01340118  RH  090%=      5-min Rain = 0
KST2 241044Z 20009KT 13/12 A2998 RMK A01 T01340118  RH  090%=      5-min Rain = 0
KST2 241045Z 19008KT 13/12 A2998 RMK A01 T01340119  RH  090%=      5-min Rain = 0
KST2 241046Z 20008KT 13/12 A2998 RMK A01 T01340119  RH  090%=      5-min Rain = 0
KST2 241047Z 20008KT 14/12 A2998 RMK A01 T01350120  RH  091%=      5-min Rain = 0
KST2 241048Z 20008KT 14/12 A2998 RMK A01 T01350119  RH  090%=      5-min Rain = 0
KST2 241049Z 20008KT 14/12 A2998 RMK A01 T01350119  RH  090%=      5-min Rain = 0
KST2 241050Z 20008KT 14/12 A2998 RMK A01 T01350120  RH  091%=      5-min Rain = 0
KST2 241051Z 20008KT 14/12 A2998 RMK A01 T01360121  RH  091%=      5-min Rain = 0
KST2 241052Z 19008KT 14/12 A2998 RMK A01 T01360120  RH  090%=      5-min Rain = 0
KST2 241053Z 19008KT 14/12 A2998 RMK A01 T01360121  RH  091%=      5-min Rain = 0
KST2 241054Z 20008KT 14/12 A2998 RMK A01 T01370122  RH  091%=      5-min Rain = 0
KST2 241055Z 19008KT 14/12 A2998 RMK A01 T01370122  RH  091%=      5-min Rain = 0
KST2 241056Z 20008KT 14/12 A2998 RMK A01 T01370122  RH  091%=      5-min Rain = 0
KST2 241057Z 20008KT 14/12 A2998 RMK A01 T01380122  RH  090%=      5-min Rain = 0
KST2 241058Z 20008KT 14/12 A2998 RMK A01 T01380122  RH  090%=      5-min Rain = 0
KST2 241059Z 19007KT 14/12 A2998 RMK A01 T01380123  RH  090%=      5-min Rain = 0
KST2 241100Z 19007KT 14/12 A2998 RMK A01 T01380122  RH  090%=      5-min Rain = 0
KST2 241101Z 20007KT 14/12 A2998 RMK A01 T01380122  RH  090%=      5-min Rain = 0
KST2 241102Z 19007KT 14/12 A2998 RMK A01 T01370122  RH  091%=      5-min Rain = 0
KST2 241103Z 19007KT 14/12 A2998 RMK A01 T01380124  RH  091%=      5-min Rain = 0
KST2 241104Z 19007KT 14/12 A2998 RMK A01 T01390124  RH  090%=      5-min Rain = 0
KST2 241105Z 19007KT 14/12 A2998 RMK A01 T01390124  RH  090%=      5-min Rain = 0
KST2 241106Z 19007KT 14/12 A2998 RMK A01 T01390124  RH  090%=      5-min Rain = 0
KST2 241107Z 19007KT 14/12 A2998 RMK A01 T01400124  RH  090%=      5-min Rain = 0
KST2 241108Z 19007KT 14/12 A2998 RMK A01 T01400123  RH  090%=      5-min Rain = 0
KST2 241109Z 19007KT 14/12 A2998 RMK A01 T01400123  RH  090%=      5-min Rain = 0
KST2 241110Z 19007KT 14/12 A2998 RMK A01 T01400124  RH  090%=      5-min Rain = 0
KST2 241111Z 19006KT 14/12 A2999 RMK A01 T01400124  RH  090%=      5-min Rain = 0
KST2 241112Z 19007KT 14/12 A2999 RMK A01 T01400123  RH  089%=      5-min Rain = 0
KST2 241113Z 18007KT 14/12 A2999 RMK A01 T01400123  RH  089%=      5-min Rain = 0
KST2 241114Z 18006KT 14/12 A2999 RMK A01 T01400123  RH  090%=      5-min Rain = 0
KST2 241115Z 18006KT 14/12 A2999 RMK A01 T01400123  RH  089%=      5-min Rain = 0
KST2 241116Z 18006KT 14/12 A2999 RMK A01 T01390121  RH  089%=      5-min Rain = 0
KST2 241117Z 18006KT 14/12 A2999 RMK A01 T01380120  RH  089%=      5-min Rain = 0
KST2 241118Z 18005KT 14/12 A2999 RMK A01 T01380120  RH  089%=      5-min Rain = 0
KST2 241119Z 18006KT 14/12 A2999 RMK A01 T01370119  RH  089%=      5-min Rain = 0
KST2 241120Z 18006KT 14/12 A2999 RMK A01 T01360119  RH  089%=      5-min Rain = 0
KST2 241121Z 18006KT 14/12 A2999 RMK A01 T01350119  RH  090%=      5-min Rain = 0
KST2 241122Z 18005KT 14/12 A2999 RMK A01 T01350118  RH  090%=      5-min Rain = 0
KST2 241123Z 18006KT 14/12 A2999 RMK A01 T01350119  RH  090%=      5-min Rain = 0
KST2 241124Z 18006KT 14/12 A2999 RMK A01 T01350119  RH  090%=      5-min Rain = 0
KST2 241125Z 18006KT 14/12 A2999 RMK A01 T01350119  RH  090%=      5-min Rain = 0
KST2 241126Z 18006KT 14/12 A2999 RMK A01 T01350119  RH  090%=      5-min Rain = 0
KST2 241127Z 18006KT 14/12 A2999 RMK A01 T01350119  RH  090%=      5-min Rain = 0
KST2 241128Z 18006KT 14/12 A2999 RMK A01 T01350120  RH  090%=      5-min Rain = 0
KST2 241129Z 18006KT 14/12 A2999 RMK A01 T01360120  RH  090%=      5-min Rain = 0
KST2 241130Z 18007KT 14/12 A2999 RMK A01 T01360120  RH  090%=      5-min Rain = 0
KST2 241131Z 18007KT 14/12 A2999 RMK A01 T01360120  RH  090%=      5-min Rain = 0
KST2 241132Z 18007KT 14/12 A2999 RMK A01 T01360120  RH  090%=      5-min Rain = 0
KST2 241133Z 18007KT 14/12 A2999 RMK A01 T01360120  RH  090%=      5-min Rain = 0
KST2 241134Z 18007KT 14/12 A2999 RMK A01 T01360121  RH  090%=      5-min Rain = 0
KST2 241135Z 18007KT 14/12 A2999 RMK A01 T01360119  RH  090%=      5-min Rain = 0
KST2 241136Z 18007KT 14/12 A2999 RMK A01 T01360119  RH  090%=      5-min Rain = 0
KST2 241137Z 18008KT 14/12 A2999 RMK A01 T01360120  RH  090%=      5-min Rain = 0
KST2 241138Z 18008KT 14/12 A2999 RMK A01 T01360120  RH  090%=      5-min Rain = 0
KST2 241139Z 18008KT 14/12 A2999 RMK A01 T01360120  RH  090%=      5-min Rain = 0
KST2 241140Z 18008KT 14/12 A2999 RMK A01 T01360120  RH  090%=      5-min Rain = 0
KST2 241141Z 18008KT 14/12 A2999 RMK A01 T01360121  RH  091%=      5-min Rain = 0
KST2 241142Z 18008KT 14/12 A2999 RMK A01 T01360121  RH  091%=      5-min Rain = 0
KST2 241143Z 18008KT 14/12 A2999 RMK A01 T01360121  RH  090%=      5-min Rain = 0
KST2 241144Z 19008KT 14/12 A2999 RMK A01 T01360122  RH  091%=      5-min Rain = 0
KST2 241145Z 18008KT 14/12 A2999 RMK A01 T01360123  RH  092%=      5-min Rain = 0
KST2 241146Z 19008KT 14/12 A2999 RMK A01 T01360123  RH  092%=      5-min Rain = 0
KST2 241147Z 19008KT 14/12 A2999 RMK A01 T01360123  RH  092%=      5-min Rain = 0
KST2 241148Z 19008KT 14/12 A2999 RMK A01 T01370123  RH  092%=      5-min Rain = 0
KST2 241149Z 19008KT 14/12 A2999 RMK A01 T01370123  RH  092%=      5-min Rain = 0
KST2 241150Z 19008KT 14/12 A2999 RMK A01 T01370123  RH  092%=      5-min Rain = 0
KST2 241151Z 19008KT 14/12 A2999 RMK A01 T01360123  RH  092%=      5-min Rain = 0
KST2 241152Z 19008KT 14/12 A2999 RMK A01 T01360123  RH  092%=      5-min Rain = 0
KST2 241153Z 19008KT 14/12 A2999 RMK A01 T01360123  RH  091%=      5-min Rain = 0
KST2 241154Z 19008KT 14/12 A2999 RMK A01 T01360123  RH  092%=      5-min Rain = 0
KST2 241155Z 19008KT 14/12 A2999 RMK A01 T01360123  RH  092%=      5-min Rain = 0
KST2 241156Z 19008KT 14/12 A2999 RMK A01 T01360123  RH  092%=      5-min Rain = 0
KST2 241157Z 19008KT 14/12 A2999 RMK A01 T01360123  RH  092%=      5-min Rain = 0
KST2 241158Z 19008KT 14/12 A2999 RMK A01 T01360123  RH  092%=      5-min Rain = 0
KST2 241159Z 19008KT 14/12 A2999 RMK A01 T01360123  RH  092%=      5-min Rain = 0
KST2 241200Z 19008KT 14/12 A2999 RMK A01 T01360123  RH  092%=      5-min Rain = 0
KST2 241201Z 19008KT 14/12 A2999 RMK A01 T01360123  RH  092%=      5-min Rain = 0
KST2 241202Z 19008KT 14/13 A2999 RMK A01 T01360125  RH  092%=      5-min Rain = 0
KST2 241203Z 19008KT 14/12 A2999 RMK A01 T01370124  RH  092%=      5-min Rain = 0
KST2 241204Z 19008KT 14/12 A2999 RMK A01 T01370124  RH  092%=      5-min Rain = 0
KST2 241205Z 19009KT 14/12 A2999 RMK A01 T01370124  RH  092%=      5-min Rain = 0
KST2 241206Z 19008KT 14/12 A2999 RMK A01 T01370124  RH  092%=      5-min Rain = 0
KST2 241207Z 19008KT 14/12 A2999 RMK A01 T01370124  RH  092%=      5-min Rain = 0
KST2 241208Z 19007KT 14/12 A2999 RMK A01 T01370124  RH  092%=      5-min Rain = 0
KST2 241209Z 19008KT 14/12 A2999 RMK A01 T01370124  RH  092%=      5-min Rain = 0
KST2 241210Z 20007KT 14/12 A2999 RMK A01 T01360123  RH  092%=      5-min Rain = 0
KST2 241211Z 20007KT 14/12 A2999 RMK A01 T01360123  RH  092%=      5-min Rain = 0
KST2 241212Z 20007KT 14/12 A2999 RMK A01 T01350123  RH  092%=      5-min Rain = 0
KST2 241213Z 20007KT 14/12 A2999 RMK A01 T01350122  RH  092%=      5-min Rain = 0
KST2 241214Z 20007KT 13/12 A2999 RMK A01 T01340122  RH  092%=      5-min Rain = 0
KST2 241215Z 20007KT 13/12 A2999 RMK A01 T01340122  RH  093%=      5-min Rain = 0
KST2 241216Z 20008KT 13/12 A2999 RMK A01 T01340123  RH  093%=      5-min Rain = 0
KST2 241217Z 20008KT 14/13 A2999 RMK A01 T01350125  RH  093%=      5-min Rain = 0
KST2 241218Z 20008KT 14/13 A2999 RMK A01 T01360125  RH  093%=      5-min Rain = 0
KST2 241219Z 20008KT 14/13 A2999 RMK A01 T01370126  RH  093%=      5-min Rain = 0
KST2 241220Z 20008KT 14/13 A2999 RMK A01 T01370125  RH  092%=      5-min Rain = 0
KST2 241221Z 20008KT 14/13 A2999 RMK A01 T01370125  RH  092%=      5-min Rain = 0
KST2 241222Z 20009KT 14/13 A30 RMK A01 T01380127  RH  093%=      5-min Rain = 0
KST2 241223Z 20008KT 14/13 A30 RMK A01 T01390127  RH  093%=      5-min Rain = 0
KST2 241224Z 21009KT 14/13 A30 RMK A01 T01390127  RH  093%=      5-min Rain = 0
KST2 241225Z 20008KT 14/13 A30 RMK A01 T01390128  RH  093%=      5-min Rain = 0
KST2 241226Z 21008KT 14/13 A30 RMK A01 T01390127  RH  092%=      5-min Rain = 0
KST2 241227Z 21008KT 14/13 A30 RMK A01 T01400129  RH  093%=      5-min Rain = 0
KST2 241228Z 20008KT 14/13 A30 RMK A01 T01410129  RH  093%=      5-min Rain = 0
KST2 241229Z 20009KT 14/13 A30 RMK A01 T01410129  RH  092%=      5-min Rain = 0
KST2 241230Z 20009KT 14/13 A30 RMK A01 T01420130  RH  093%=      5-min Rain = 0
KST2 241231Z 20008KT 14/13 A30 RMK A01 T01440132  RH  092%=      5-min Rain = 0
KST2 241232Z 21007KT 14/13 A30 RMK A01 T01440130  RH  091%=      5-min Rain = 0
KST2 241233Z 21008KT 14/13 A30 RMK A01 T01440130  RH  091%=      5-min Rain = 0
KST2 241234Z 21008KT 14/13 A30 RMK A01 T01430130  RH  092%=      5-min Rain = 0
KST2 241235Z 21008KT 14/13 A30 RMK A01 T01430130  RH  092%=      5-min Rain = 0
KST2 241236Z 21008KT 14/13 A30 RMK A01 T01430130  RH  092%=      5-min Rain = 0
KST2 241237Z 21008KT 14/13 A30 RMK A01 T01430130  RH  092%=      5-min Rain = 0
KST2 241238Z 21007KT 14/13 A30 RMK A01 T01430130  RH  092%=      5-min Rain = 0
KST2 241239Z 21008KT 14/13 A30 RMK A01 T01430129  RH  091%=      5-min Rain = 0
KST2 241240Z 21007KT 14/13 A30 RMK A01 T01420130  RH  092%=      5-min Rain = 0
KST2 241241Z 21007KT 14/13 A30 RMK A01 T01420129  RH  092%=      5-min Rain = 0
KST2 241242Z 21006KT 14/13 A30 RMK A01 T01420129  RH  092%=      5-min Rain = 0
KST2 241243Z 21006KT 14/13 A30 RMK A01 T01420129  RH  092%=      5-min Rain = 0
KST2 241244Z 21006KT 14/13 A30 RMK A01 T01410128  RH  092%=      5-min Rain = 0
KST2 241245Z 21006KT 14/13 A30 RMK A01 T01410128  RH  092%=      5-min Rain = 0
KST2 241246Z 21006KT 14/13 A30 RMK A01 T01400128  RH  092%=      5-min Rain = 0
KST2 241247Z 21007KT 14/13 A30 RMK A01 T01400128  RH  093%=      5-min Rain = 0
KST2 241248Z 21007KT 14/13 A30 RMK A01 T01400128  RH  092%=      5-min Rain = 0
KST2 241249Z 21007KT 14/13 A30 RMK A01 T01410129  RH  092%=      5-min Rain = 0
KST2 241250Z 21007KT 14/13 A30 RMK A01 T01410128  RH  092%=      5-min Rain = 0
KST2 241251Z 21007KT 14/13 A30 RMK A01 T01410128  RH  092%=      5-min Rain = 0
KST2 241252Z 21007KT 14/13 A30 RMK A01 T01410129  RH  092%=      5-min Rain = 0
KST2 241253Z 21006KT 14/13 A30 RMK A01 T01410128  RH  092%=      5-min Rain = 0
KST2 241254Z 21006KT 14/13 A30 RMK A01 T01420128  RH  092%=      5-min Rain = 0
KST2 241255Z 20006KT 14/13 A30 RMK A01 T01420129  RH  092%=      5-min Rain = 0
KST2 241256Z 20006KT 14/13 A30 RMK A01 T01420128  RH  092%=      5-min Rain = 0
KST2 241257Z 20007KT 14/13 A30 RMK A01 T01420129  RH  092%=      5-min Rain = 0
KST2 241258Z 20006KT 14/13 A30 RMK A01 T01420129  RH  092%=      5-min Rain = 0
KST2 241259Z 20006KT 14/13 A30 RMK A01 T01430130  RH  092%=      5-min Rain = 0
KST2 241300Z 20006KT 14/13 A30 RMK A01 T01430129  RH  092%=      5-min Rain = 0
KST2 241301Z 20006KT 14/13 A30 RMK A01 T01430130  RH  092%=      5-min Rain = 0
KST2 241302Z 20006KT 14/13 A30 RMK A01 T01430129  RH  092%=      5-min Rain = 0
KST2 241303Z 20006KT 14/13 A30 RMK A01 T01430129  RH  092%=      5-min Rain = 0
KST2 241304Z 20006KT 14/13 A3001 RMK A01 T01430130  RH  091%=      5-min Rain = 0
KST2 241305Z 20006KT 14/13 A3001 RMK A01 T01430129  RH  091%=      5-min Rain = 0
KST2 241306Z 20006KT 14/13 A3001 RMK A01 T01430130  RH  092%=      5-min Rain = 0
KST2 241307Z 20006KT 14/13 A3001 RMK A01 T01440130  RH  092%=      5-min Rain = 0
KST2 241308Z 20006KT 14/13 A3001 RMK A01 T01440130  RH  091%=      5-min Rain = 0
KST2 241309Z 20005KT 14/13 A3001 RMK A01 T01440130  RH  091%=      5-min Rain = 0
KST2 241310Z 20006KT 15/13 A3001 RMK A01 T01450131  RH  091%=      5-min Rain = 0
KST2 241311Z 20006KT 15/13 A3001 RMK A01 T01450131  RH  091%=      5-min Rain = 0
KST2 241312Z 21006KT 15/13 A3001 RMK A01 T01450131  RH  091%=      5-min Rain = 0
KST2 241313Z 21005KT 15/13 A3001 RMK A01 T01460131  RH  091%=      5-min Rain = 0
KST2 241314Z 21005KT 15/13 A3001 RMK A01 T01460131  RH  091%=      5-min Rain = 0
KST2 241315Z 21004KT 15/13 A3001 RMK A01 T01470132  RH  091%=      5-min Rain = 0
KST2 241316Z 21004KT 15/13 A3001 RMK A01 T01470132  RH  091%=      5-min Rain = 0
KST2 241317Z 22004KT 15/13 A3001 RMK A01 T01470132  RH  091%=      5-min Rain = 0
KST2 241318Z 22004KT 15/13 A3001 RMK A01 T01470131  RH  091%=      5-min Rain = 0
KST2 241319Z 23003KT 15/13 A3001 RMK A01 T01470132  RH  090%=      5-min Rain = 0
KST2 241320Z 24003KT 15/13 A3001 RMK A01 T01470131  RH  090%=      5-min Rain = 0
KST2 241321Z 27002KT 15/13 A3001 RMK A01 T01470131  RH  090%=      5-min Rain = 0
KST2 241322Z 31003KT 15/13 A3001 RMK A01 T01470129  RH  089%=      5-min Rain = 0
KST2 241323Z 31003KT 15/13 A3002 RMK A01 T01450127  RH  089%=      5-min Rain = 0
KST2 241324Z 31003KT 14/13 A3002 RMK A01 T01440126  RH  089%=      5-min Rain = 0
KST2 241325Z 29003KT 14/13 A3002 RMK A01 T01430126  RH  089%=      5-min Rain = 0
KST2 241326Z 29003KT 14/13 A3002 RMK A01 T01420126  RH  090%=      5-min Rain = 0
KST2 241327Z 28002KT 14/13 A3002 RMK A01 T01420126  RH  090%=      5-min Rain = 0
KST2 241328Z 27002KT 14/13 A3002 RMK A01 T01420127  RH  091%=      5-min Rain = 0
KST2 241329Z 27002KT 14/13 A3002 RMK A01 T01420127  RH  091%=      5-min Rain = 0
KST2 241330Z 26002KT 14/13 A3002 RMK A01 T01430127  RH  091%=      5-min Rain = 0
KST2 241331Z 26002KT 14/13 A3002 RMK A01 T01430128  RH  091%=      5-min Rain = 0
KST2 241332Z 25003KT 14/13 A3002 RMK A01 T01440129  RH  091%=      5-min Rain = 0
KST2 241333Z 26003KT 15/13 A3002 RMK A01 T01450130  RH  091%=      5-min Rain = 0
KST2 241334Z 27003KT 15/13 A3002 RMK A01 T01450130  RH  091%=      5-min Rain = 0
KST2 241335Z 28003KT 15/13 A3002 RMK A01 T01460131  RH  090%=      5-min Rain = 0
KST2 241336Z 28003KT 15/13 A3002 RMK A01 T01460130  RH  090%=      5-min Rain = 0
KST2 241337Z 29004KT 15/13 A3002 RMK A01 T01470131  RH  090%=      5-min Rain = 0
KST2 241338Z 29003KT 15/13 A3002 RMK A01 T01470130  RH  090%=      5-min Rain = 0
KST2 241339Z 30004KT 15/13 A3002 RMK A01 T01470131  RH  090%=      5-min Rain = 0
KST2 241340Z 31004KT 15/13 A3003 RMK A01 T01480131  RH  090%=      5-min Rain = 0
KST2 241341Z 31004KT 15/13 A3003 RMK A01 T01490132  RH  090%=      5-min Rain = 0
KST2 241342Z 32005KT 15/13 A3003 RMK A01 T01490132  RH  090%=      5-min Rain = 0
KST2 241343Z 32005KT 15/13 A3003 RMK A01 T01500132  RH  089%=      5-min Rain = 0
KST2 241344Z 32004KT 15/13 A3003 RMK A01 T01500132  RH  089%=      5-min Rain = 0
KST2 241345Z 31005KT 15/13 A3003 RMK A01 T01510133  RH  089%=      5-min Rain = 0
KST2 241346Z 31005KT 15/13 A3003 RMK A01 T01510133  RH  089%=      5-min Rain = 0
KST2 241347Z 31005KT 15/13 A3003 RMK A01 T01520134  RH  089%=      5-min Rain = 0
KST2 241348Z 30005KT 15/13 A3003 RMK A01 T01520134  RH  089%=      5-min Rain = 0
KST2 241349Z 30005KT 15/13 A3003 RMK A01 T01530134  RH  088%=      5-min Rain = 0
KST2 241350Z 30004KT 15/14 A3003 RMK A01 T01540135  RH  088%=      5-min Rain = 0
KST2 241351Z 30005KT 16/14 A3003 RMK A01 T01550135  RH  088%=      5-min Rain = 0
KST2 241352Z 30005KT 16/13 A3003 RMK A01 T01550134  RH  088%=      5-min Rain = 0
KST2 241353Z 29004KT 16/14 A3003 RMK A01 T01550135  RH  088%=      5-min Rain = 0
KST2 241354Z 29004KT 16/14 A3003 RMK A01 T01560136  RH  088%=      5-min Rain = 0
KST2 241355Z 29005KT 16/14 A3003 RMK A01 T01560135  RH  087%=      5-min Rain = 0
KST2 241356Z 29005KT 16/14 A3003 RMK A01 T01560135  RH  087%=      5-min Rain = 0
KST2 241357Z 29005KT 16/14 A3003 RMK A01 T01560135  RH  087%=      5-min Rain = 0
KST2 241358Z 29005KT 16/14 A3003 RMK A01 T01570135  RH  087%=      5-min Rain = 0
KST2 241359Z 28005KT 16/14 A3003 RMK A01 T01570136  RH  087%=      5-min Rain = 0
KST2 241400Z 28005KT 16/14 A3003 RMK A01 T01580137  RH  087%=      5-min Rain = 0
KST2 241401Z 28005KT 16/14 A3003 RMK A01 T01590136  RH  086%=      5-min Rain = 0
KST2 241402Z 28004KT 16/14 A3003 RMK A01 T01600137  RH  087%=      5-min Rain = 0
KST2 241403Z 28005KT 16/14 A3003 RMK A01 T01600137  RH  086%=      5-min Rain = 0
KST2 241404Z 27005KT 16/14 A3003 RMK A01 T01610137  RH  086%=      5-min Rain = 0
KST2 241405Z 27004KT 16/14 A3003 RMK A01 T01610137  RH  086%=      5-min Rain = 0
KST2 241406Z 27004KT 16/14 A3003 RMK A01 T01610138  RH  086%=      5-min Rain = 0
KST2 241407Z 26005KT 16/14 A3003 RMK A01 T01620138  RH  086%=      5-min Rain = 0
KST2 241408Z 26005KT 16/14 A3003 RMK A01 T01630139  RH  085%=      5-min Rain = 0
KST2 241409Z 26005KT 16/14 A3003 RMK A01 T01630138  RH  085%=      5-min Rain = 0
KST2 241410Z 26005KT 16/14 A3003 RMK A01 T01630138  RH  085%=      5-min Rain = 0
KST2 241411Z 27004KT 16/14 A3003 RMK A01 T01640139  RH  085%=      5-min Rain = 0
KST2 241412Z 26004KT 17/14 A3004 RMK A01 T01650140  RH  085%=      5-min Rain = 0
KST2 241413Z 27004KT 17/14 A3003 RMK A01 T01660140  RH  085%=      5-min Rain = 0
KST2 241414Z 27005KT 17/14 A3004 RMK A01 T01670141  RH  085%=      5-min Rain = 0
KST2 241415Z 26005KT 17/14 A3004 RMK A01 T01670141  RH  084%=      5-min Rain = 0
KST2 241416Z 26005KT 17/14 A3004 RMK A01 T01680140  RH  084%=      5-min Rain = 0
KST2 241417Z 27004KT 17/14 A3004 RMK A01 T01680141  RH  084%=      5-min Rain = 0
KST2 241418Z 27004KT 17/14 A3004 RMK A01 T01690141  RH  084%=      5-min Rain = 0
KST2 241419Z 26005KT 17/14 A3004 RMK A01 T01690141  RH  084%=      5-min Rain = 0
KST2 241420Z 26005KT 17/14 A3004 RMK A01 T01690140  RH  083%=      5-min Rain = 0
KST2 241421Z 26005KT 17/14 A3004 RMK A01 T01690141  RH  083%=      5-min Rain = 0
KST2 241422Z 26005KT 17/14 A3004 RMK A01 T01690141  RH  083%=      5-min Rain = 0
KST2 241423Z 26004KT 17/14 A3004 RMK A01 T01700141  RH  083%=      5-min Rain = 0
KST2 241424Z 27004KT 17/14 A3004 RMK A01 T01700141  RH  083%=      5-min Rain = 0
KST2 241425Z 28004KT 17/14 A3004 RMK A01 T01710141  RH  083%=      5-min Rain = 0
KST2 241426Z 27004KT 17/14 A3004 RMK A01 T01710142  RH  083%=      5-min Rain = 0
KST2 241427Z 27004KT 17/14 A3004 RMK A01 T01710141  RH  083%=      5-min Rain = 0
KST2 241428Z 27003KT 17/14 A3004 RMK A01 T01710141  RH  083%=      5-min Rain = 0
KST2 241429Z 28005KT 17/14 A3005 RMK A01 T01710142  RH  083%=      5-min Rain = 0
KST2 241430Z 29004KT 17/14 A3005 RMK A01 T01710141  RH  082%=      5-min Rain = 0
KST2 241431Z 28005KT 17/14 A3005 RMK A01 T01720142  RH  083%=      5-min Rain = 0
KST2 241432Z 28004KT 17/14 A3005 RMK A01 T01730142  RH  082%=      5-min Rain = 0
KST2 241433Z 29005KT 17/14 A3005 RMK A01 T01730143  RH  082%=      5-min Rain = 0
KST2 241434Z 27005KT 17/14 A3005 RMK A01 T01740144  RH  082%=      5-min Rain = 0
KST2 241435Z 28004KT 18/14 A3005 RMK A01 T01750143  RH  082%=      5-min Rain = 0
KST2 241436Z 29005KT 18/14 A3005 RMK A01 T01760143  RH  081%=      5-min Rain = 0
KST2 241437Z 29004KT 18/14 A3005 RMK A01 T01760142  RH  081%=      5-min Rain = 0
KST2 241438Z 28005KT 18/14 A3005 RMK A01 T01760143  RH  081%=      5-min Rain = 0
KST2 241439Z 28005KT 18/14 A3005 RMK A01 T01760144  RH  081%=      5-min Rain = 0
KST2 241440Z 28005KT 18/14 A3005 RMK A01 T01770143  RH  081%=      5-min Rain = 0
KST2 241441Z 28004KT 18/14 A3005 RMK A01 T01770143  RH  081%=      5-min Rain = 0
KST2 241442Z 28004KT 18/14 A3005 RMK A01 T01770144  RH  081%=      5-min Rain = 0
KST2 241443Z 27004KT 18/14 A3005 RMK A01 T01780144  RH  080%=      5-min Rain = 0
KST2 241444Z 29004KT 18/14 A3005 RMK A01 T01780143  RH  080%=      5-min Rain = 0
KST2 241445Z 31004KT 18/14 A3005 RMK A01 T01780143  RH  080%=      5-min Rain = 0
KST2 241446Z 33005KT 18/14 A3005 RMK A01 T01780144  RH  080%=      5-min Rain = 0
KST2 241447Z 32006KT 18/14 A3005 RMK A01 T01770143  RH  080%=      5-min Rain = 0
KST2 241448Z 33007KT 18/14 A3005 RMK A01 T01770143  RH  080%=      5-min Rain = 0
KST2 241449Z 34008KT 18/14 A3005 RMK A01 T01770141  RH  080%=      5-min Rain = 0
KST2 241450Z 34007KT 18/14 A3005 RMK A01 T01750140  RH  080%=      5-min Rain = 0
KST2 241451Z 34007KT 18/14 A3005 RMK A01 T01750143  RH  081%=      5-min Rain = 0
KST2 241452Z 34006KT 18/14 A3005 RMK A01 T01760142  RH  080%=      5-min Rain = 0
KST2 241453Z 35008KT 18/14 A3006 RMK A01 T01770142  RH  080%=      5-min Rain = 0
KST2 241454Z 35007KT 17/14 A3006 RMK A01 T01740139  RH  079%=      5-min Rain = 0
KST2 241455Z 35008KT 17/14 A3006 RMK A01 T01730138  RH  080%=      5-min Rain = 0
KST2 241456Z 35007KT 17/14 A3006 RMK A01 T01710136  RH  080%=      5-min Rain = 0
KST2 241457Z 35007KT 17/14 A3006 RMK A01 T01690136  RH  081%=      5-min Rain = 0
KST2 241458Z 34008KT 17/14 A3006 RMK A01 T01690136  RH  081%=      5-min Rain = 0
KST2 241459Z 35008KT 17/14 A3006 RMK A01 T01690136  RH  081%=      5-min Rain = 0
KST2 241500Z 35008KT 17/14 A3006 RMK A01 T01690136  RH  081%=      5-min Rain = 0
KST2 241501Z 35008KT 17/14 A3006 RMK A01 T01680135  RH  081%=      5-min Rain = 0
KST2 241502Z 34009KT 17/14 A3006 RMK A01 T01680135  RH  081%=      5-min Rain = 0
KST2 241503Z 34009KT 17/14 A3006 RMK A01 T01690136  RH  081%=      5-min Rain = 0
KST2 241504Z 35008KT 17/14 A3006 RMK A01 T01700136  RH  081%=      5-min Rain = 0
KST2 241505Z 35009KT 17/14 A3006 RMK A01 T01700137  RH  081%=      5-min Rain = 0
KST2 241506Z 33008KT 17/14 A3006 RMK A01 T01710138  RH  081%=      5-min Rain = 0
KST2 241507Z 32008KT 17/14 A3006 RMK A01 T01720138  RH  080%=      5-min Rain = 0
KST2 241508Z 33007KT 17/14 A3006 RMK A01 T01710137  RH  080%=      5-min Rain = 0
KST2 241509Z 33008KT 17/14 A3006 RMK A01 T01720138  RH  080%=      5-min Rain = 0
KST2 241510Z 32009KT 17/14 A3006 RMK A01 T01720137  RH  080%=      5-min Rain = 0
KST2 241511Z 33008KT 17/14 A3006 RMK A01 T01740139  RH  080%=      5-min Rain = 0
KST2 241512Z 33008KT 17/14 A3006 RMK A01 T01740138  RH  079%=      5-min Rain = 0
KST2 241513Z 33008KT 17/14 A3006 RMK A01 T01740138  RH  079%=      5-min Rain = 0
KST2 241514Z 31009KT 18/14 A3006 RMK A01 T01750138  RH  079%=      5-min Rain = 0
KST2 241515Z 31009KT 18/14 A3006 RMK A01 T01760138  RH  079%=      5-min Rain = 0
KST2 241516Z 32009KT 18/14 A3006 RMK A01 T01760138  RH  078%=      5-min Rain = 0
KST2 241517Z 31008KT 18/14 A3006 RMK A01 T01760138  RH  079%=      5-min Rain = 0
KST2 241518Z 31008KT 18/14 A3006 RMK A01 T01760138  RH  078%=      5-min Rain = 0
KST2 241519Z 32008KT 18/14 A3006 RMK A01 T01760138  RH  078%=      5-min Rain = 0
KST2 241520Z 30009KT 18/14 A3006 RMK A01 T01750138  RH  079%=      5-min Rain = 0
KST2 241521Z 30008KT 18/14 A3006 RMK A01 T01760140  RH  079%=      5-min Rain = 0
KST2 241522Z 29009KT 18/14 A3006 RMK A01 T01780140  RH  078%=      5-min Rain = 0
KST2 241523Z 29009KT 18/14 A3006 RMK A01 T01790139  RH  078%=      5-min Rain = 0
KST2 241524Z 28008KT 18/14 A3006 RMK A01 T01790140  RH  078%=      5-min Rain = 0
KST2 241525Z 29008KT 18/14 A3006 RMK A01 T01790141  RH  078%=      5-min Rain = 0
KST2 241526Z 29007KT 18/14 A3006 RMK A01 T01790140  RH  078%=      5-min Rain = 0
KST2 241527Z 28009KT 18/14 A3006 RMK A01 T01790140  RH  078%=      5-min Rain = 0
KST2 241528Z 29007KT 18/14 A3007 RMK A01 T01800141  RH  078%=      5-min Rain = 0
KST2 241529Z 28007KT 18/14 A3007 RMK A01 T01810142  RH  078%=      5-min Rain = 0
KST2 241530Z 27007KT 18/14 A3007 RMK A01 T01830143  RH  077%=      5-min Rain = 0
KST2 241531Z 28008KT 19/14 A3007 RMK A01 T01850142  RH  076%=      5-min Rain = 0
KST2 241532Z 28009KT 19/14 A3007 RMK A01 T01850144  RH  077%=      5-min Rain = 0
KST2 241533Z 29009KT 19/15 A3007 RMK A01 T01870145  RH  076%=      5-min Rain = 0
KST2 241534Z 29007KT 19/14 A3007 RMK A01 T01880144  RH  075%=      5-min Rain = 0
KST2 241535Z 29006KT 19/14 A3007 RMK A01 T01870144  RH  076%=      5-min Rain = 0
KST2 241536Z 28006KT 19/14 A3007 RMK A01 T01870144  RH  076%=      5-min Rain = 0
KST2 241537Z 26007KT 19/14 A3006 RMK A01 T01870143  RH  076%=      5-min Rain = 0
KST2 241538Z 26006KT 19/14 A3006 RMK A01 T01870144  RH  076%=      5-min Rain = 0
KST2 241539Z 27006KT 19/15 A3006 RMK A01 T01860145  RH  077%=      5-min Rain = 0
KST2 241540Z 26005KT 19/14 A3006 RMK A01 T01870144  RH  076%=      5-min Rain = 0
KST2 241541Z 25005KT 19/14 A3006 RMK A01 T01870144  RH  076%=      5-min Rain = 0
KST2 241542Z 27004KT 19/15 A3006 RMK A01 T01880145  RH  076%=      5-min Rain = 0
KST2 241543Z 27005KT 19/15 A3006 RMK A01 T01900146  RH  076%=      5-min Rain = 0
KST2 241544Z 27006KT 19/15 A3006 RMK A01 T01910146  RH  075%=      5-min Rain = 0
KST2 241545Z 28007KT 19/15 A3006 RMK A01 T01920146  RH  074%=      5-min Rain = 0
KST2 241546Z 28007KT 19/15 A3006 RMK A01 T01920146  RH  074%=      5-min Rain = 0
KST2 241547Z 27008KT 19/15 A3006 RMK A01 T01920147  RH  075%=      5-min Rain = 0
KST2 241548Z 26007KT 19/15 A3006 RMK A01 T01930146  RH  074%=      5-min Rain = 0
KST2 241549Z 26006KT 19/15 A3006 RMK A01 T01930146  RH  074%=      5-min Rain = 0
KST2 241550Z 25004KT 19/15 A3006 RMK A01 T01920148  RH  075%=      5-min Rain = 0
KST2 241551Z 25006KT 20/15 A3006 RMK A01 T01950150  RH  075%=      5-min Rain = 0
KST2 241552Z 27005KT 20/15 A3006 RMK A01 T01970148  RH  073%=      5-min Rain = 0
KST2 241553Z 26005KT 20/15 A3006 RMK A01 T01970147  RH  073%=      5-min Rain = 0
KST2 241554Z 25005KT 20/15 A3006 RMK A01 T01960147  RH  073%=      5-min Rain = 0
KST2 241555Z 28005KT 20/15 A3006 RMK A01 T01960148  RH  074%=      5-min Rain = 0
KST2 241556Z 28004KT 20/15 A3006 RMK A01 T01970148  RH  073%=      5-min Rain = 0
KST2 241557Z 26005KT 20/15 A3006 RMK A01 T01980149  RH  073%=      5-min Rain = 0
KST2 241558Z 25006KT 20/15 A3006 RMK A01 T01990148  RH  072%=      5-min Rain = 0
KST2 241559Z 24005KT 20/15 A3006 RMK A01 T01990149  RH  072%=      5-min Rain = 0
KST2 241600Z 24006KT 20/15 A3006 RMK A01 T02000150  RH  073%=      5-min Rain = 0
KST2 241601Z 26006KT 20/15 A3006 RMK A01 T02020150  RH  072%=      5-min Rain = 0
KST2 241602Z 27007KT 20/15 A3006 RMK A01 T02030150  RH  071%=      5-min Rain = 0
KST2 241603Z 27007KT 20/15 A3006 RMK A01 T02040148  RH  070%=      5-min Rain = 0
KST2 241604Z 29005KT 20/15 A3006 RMK A01 T02030148  RH  071%=      5-min Rain = 0
KST2 241605Z 27005KT 20/15 A3006 RMK A01 T02020149  RH  072%=      5-min Rain = 0
KST2 241606Z 29006KT 20/15 A3006 RMK A01 T02020147  RH  071%=      5-min Rain = 0
KST2 241607Z 28007KT 20/15 A3006 RMK A01 T02020148  RH  071%=      5-min Rain = 0
KST2 241608Z 29007KT 20/15 A3006 RMK A01 T02020147  RH  070%=      5-min Rain = 0
KST2 241609Z 31008KT 20/15 A3006 RMK A01 T02030148  RH  071%=      5-min Rain = 0
KST2 241610Z 32007KT 20/15 A3006 RMK A01 T02020146  RH  070%=      5-min Rain = 0
KST2 241611Z 31005KT 20/14 A3006 RMK A01 T01990144  RH  071%=      5-min Rain = 0
KST2 241612Z 28004KT 20/14 A3006 RMK A01 T01970144  RH  072%=      5-min Rain = 0
KST2 241613Z 30004KT 20/15 A3006 RMK A01 T01960145  RH  072%=      5-min Rain = 0
KST2 241614Z 33004KT 20/15 A3006 RMK A01 T01960145  RH  072%=      5-min Rain = 0
KST2 241615Z 31007KT 20/15 A3006 RMK A01 T01970146  RH  072%=      5-min Rain = 0
KST2 241616Z 28005KT 20/15 A3006 RMK A01 T01990147  RH  072%=      5-min Rain = 0
KST2 241617Z 28006KT 20/15 A3006 RMK A01 T02010148  RH  072%=      5-min Rain = 0
KST2 241618Z 28005KT 20/15 A3006 RMK A01 T02040147  RH  070%=      5-min Rain = 0
KST2 241619Z 29004KT 21/15 A3006 RMK A01 T02050148  RH  070%=      5-min Rain = 0
KST2 241620Z 25004KT 21/15 A3006 RMK A01 T02060150  RH  070%=      5-min Rain = 0
KST2 241621Z 28004KT 21/15 A3006 RMK A01 T02080148  RH  069%=      5-min Rain = 0
KST2 241622Z 28007KT 21/15 A3006 RMK A01 T02070148  RH  068%=      5-min Rain = 0
KST2 241623Z 30007KT 21/15 A3006 RMK A01 T02080147  RH  068%=      5-min Rain = 0
KST2 241624Z 31004KT 21/15 A3006 RMK A01 T02090149  RH  069%=      5-min Rain = 0
KST2 241625Z 27005KT 21/15 A3006 RMK A01 T02100148  RH  067%=      5-min Rain = 0
KST2 241626Z 26006KT 21/15 A3006 RMK A01 T02110149  RH  068%=      5-min Rain = 0
KST2 241627Z 27007KT 21/15 A3006 RMK A01 T02130149  RH  067%=      5-min Rain = 0
KST2 241628Z 26007KT 21/15 A3006 RMK A01 T02140148  RH  066%=      5-min Rain = 0
KST2 241629Z 25012KT 22/15 A3006 RMK A01 T02160147  RH  065%=      5-min Rain = 0
KST2 241630Z 25014KT 22/15 A3005 RMK A01 T02190146  RH  063%=      5-min Rain = 0
KST2 241631Z 27011KT 22/15 A3006 RMK A01 T02210148  RH  063%=      5-min Rain = 0
KST2 241632Z 26011KT 22/15 A3006 RMK A01 T02200149  RH  064%=      5-min Rain = 0
KST2 241633Z 27013KT 22/15 A3006 RMK A01 T02200147  RH  063%=      5-min Rain = 0
KST2 241634Z 28013KT 22/15 A3006 RMK A01 T02210147  RH  063%=      5-min Rain = 0
KST2 241635Z 27013KT 22/15 A3006 RMK A01 T02230146  RH  062%=      5-min Rain = 0
KST2 241636Z 27012KT 22/15 A3006 RMK A01 T02230145  RH  061%=      5-min Rain = 0
KST2 241637Z 27012KT 22/15 A3006 RMK A01 T02220147  RH  062%=      5-min Rain = 0
KST2 241638Z 27015KT 22/15 A3006 RMK A01 T02220146  RH  062%=      5-min Rain = 0
KST2 241639Z 27013KT 22/15 A3006 RMK A01 T02220146  RH  062%=      5-min Rain = 0
KST2 241640Z 26009KT 22/15 A3006 RMK A01 T02220147  RH  063%=      5-min Rain = 0
KST2 241641Z 25011KT 22/15 A3006 RMK A01 T02220147  RH  062%=      5-min Rain = 0
KST2 241642Z 26012KT 22/15 A3006 RMK A01 T02220147  RH  062%=      5-min Rain = 0
KST2 241643Z 26011KT 22/15 A3006 RMK A01 T02220147  RH  063%=      5-min Rain = 0
KST2 241644Z 26012KT 22/15 A3006 RMK A01 T02240146  RH  061%=      5-min Rain = 0
KST2 241645Z 27013KT 22/15 A3006 RMK A01 T02240147  RH  061%=      5-min Rain = 0
KST2 241646Z 28011KT 23/15 A3006 RMK A01 T02250145  RH  061%=      5-min Rain = 0
KST2 241647Z 26009KT 22/14 A3006 RMK A01 T02240144  RH  061%=      5-min Rain = 0
KST2 241648Z 26009KT 22/15 A3005 RMK A01 T02240145  RH  061%=      5-min Rain = 0
KST2 241649Z 25012KT 23/15 A3005 RMK A01 T02260147  RH  061%=      5-min Rain = 0
KST2 241650Z 26010KT 23/15 A3005 RMK A01 T02280146  RH  060%=      5-min Rain = 0
KST2 241651Z 28013KT 23/14 A3005 RMK A01 T02290144  RH  059%=      5-min Rain = 0
KST2 241652Z 27009KT 23/14 A3005 RMK A01 T02300143  RH  058%=      5-min Rain = 0
KST2 241653Z 28012KT 23/14 A3005 RMK A01 T02310144  RH  058%=      5-min Rain = 0
KST2 241654Z 29012KT 23/14 A3005 RMK A01 T02320142  RH  057%=      5-min Rain = 0
KST2 241655Z 28013KT 23/14 A3005 RMK A01 T02310143  RH  058%=      5-min Rain = 0
KST2 241656Z 27011KT 23/15 A3005 RMK A01 T02300145  RH  059%=      5-min Rain = 0
KST2 241657Z 27013KT 23/15 A3005 RMK A01 T02310145  RH  058%=      5-min Rain = 0
KST2 241658Z 27010KT 23/15 A3005 RMK A01 T02320146  RH  058%=      5-min Rain = 0
KST2 241659Z 27012KT 23/15 A3005 RMK A01 T02320146  RH  058%=      5-min Rain = 0
KST2 241700Z 28011KT 23/15 A3005 RMK A01 T02310147  RH  059%=      5-min Rain = 0
KST2 241701Z 26011G16KT 23/15 A3005 RMK A01 T02320148  RH  059%=      5-min Rain = 0
KST2 241702Z 26013KT 23/15 A3005 RMK A01 T02330148  RH  059%=      5-min Rain = 0
KST2 241703Z 26009KT 23/15 A3005 RMK A01 T02300147  RH  059%=      5-min Rain = 0
KST2 241704Z 27012KT 23/15 A3005 RMK A01 T02300148  RH  060%=      5-min Rain = 0
KST2 241705Z 28014KT 23/15 A3005 RMK A01 T02340147  RH  058%=      5-min Rain = 0
KST2 241706Z 28012KT 24/15 A3005 RMK A01 T02350145  RH  057%=      5-min Rain = 0
KST2 241707Z 26012KT 24/15 A3005 RMK A01 T02350145  RH  057%=      5-min Rain = 0
KST2 241708Z 25011KT 24/14 A3005 RMK A01 T02360139  RH  055%=      5-min Rain = 0
KST2 241709Z 24012G18KT 24/14 A3005 RMK A01 T02350142  RH  056%=      5-min Rain = 0
KST2 241710Z 25014KT 24/14 A3005 RMK A01 T02360141  RH  055%=      5-min Rain = 0
KST2 241711Z 26011KT 24/14 A3005 RMK A01 T02370141  RH  055%=      5-min Rain = 0
KST2 241712Z 26011KT 24/14 A3005 RMK A01 T02380142  RH  055%=      5-min Rain = 0
KST2 241713Z 26012KT 24/14 A3005 RMK A01 T02380141  RH  054%=      5-min Rain = 0
KST2 241714Z 26012KT 24/14 A3005 RMK A01 T02380141  RH  054%=      5-min Rain = 0
KST2 241715Z 25010KT 24/14 A3005 RMK A01 T02350140  RH  055%=      5-min Rain = 0
KST2 241716Z 26010KT 24/14 A3004 RMK A01 T02350141  RH  056%=      5-min Rain = 0
KST2 241717Z 26009KT 24/14 A3004 RMK A01 T02360141  RH  055%=      5-min Rain = 0
KST2 241718Z 26011KT 24/14 A3004 RMK A01 T02390143  RH  055%=      5-min Rain = 0
KST2 241719Z 26012KT 24/14 A3004 RMK A01 T02430144  RH  054%=      5-min Rain = 0
KST2 241720Z 26015KT 25/14 A3004 RMK A01 T02450143  RH  053%=      5-min Rain = 0
KST2 241721Z 25014KT 24/14 A3004 RMK A01 T02430141  RH  053%=      5-min Rain = 0
KST2 241722Z 26012KT 24/14 A3004 RMK A01 T02410141  RH  054%=      5-min Rain = 0
KST2 241723Z 26012KT 24/14 A3004 RMK A01 T02400138  RH  053%=      5-min Rain = 0
KST2 241724Z 26009KT 24/14 A3004 RMK A01 T02390139  RH  054%=      5-min Rain = 0
KST2 241725Z 25010KT 24/14 A3004 RMK A01 T02390139  RH  053%=      5-min Rain = 0
KST2 241726Z 25013G18KT 24/14 A3004 RMK A01 T02390142  RH  055%=      5-min Rain = 0
KST2 241727Z 27014KT 24/14 A3004 RMK A01 T02410140  RH  053%=      5-min Rain = 0
KST2 241728Z 26012KT 24/14 A3004 RMK A01 T02420140  RH  053%=      5-min Rain = 0
KST2 241729Z 25011KT 24/14 A3004 RMK A01 T02420141  RH  053%=      5-min Rain = 0
KST2 241730Z 27012KT 24/14 A3004 RMK A01 T02420141  RH  053%=      5-min Rain = 0
KST2 241731Z 27012G17KT 24/14 A3004 RMK A01 T02430140  RH  053%=      5-min Rain = 0
KST2 241732Z 26011KT 24/14 A3004 RMK A01 T02420140  RH  053%=      5-min Rain = 0
KST2 241733Z 23014KT 24/14 A3004 RMK A01 T02410137  RH  052%=      5-min Rain = 0
KST2 241734Z 24014KT 24/14 A3004 RMK A01 T02440135  RH  050%=      5-min Rain = 0
KST2 241735Z 25012KT 25/13 A3004 RMK A01 T02450134  RH  050%=      5-min Rain = 0
KST2 241736Z 23012KT 24/14 A3004 RMK A01 T02430136  RH  051%=      5-min Rain = 0
KST2 241737Z 24013KT 24/14 A3004 RMK A01 T02440137  RH  051%=      5-min Rain = 0
KST2 241738Z 24010KT 25/13 A3004 RMK A01 T02450134  RH  050%=      5-min Rain = 0
KST2 241739Z 26012KT 24/14 A3004 RMK A01 T02430137  RH  052%=      5-min Rain = 0
KST2 241740Z 28012KT 24/14 A3004 RMK A01 T02440135  RH  051%=      5-min Rain = 0
KST2 241741Z 26013KT 24/14 A3004 RMK A01 T02430135  RH  051%=      5-min Rain = 0
KST2 241742Z 26015KT 24/13 A3003 RMK A01 T02430134  RH  051%=      5-min Rain = 0
KST2 241743Z 27011KT 24/13 A3004 RMK A01 T02410134  RH  051%=      5-min Rain = 0
KST2 241744Z 25015KT 24/13 A3004 RMK A01 T02420134  RH  051%=      5-min Rain = 0
KST2 241745Z 25011KT 24/14 A3004 RMK A01 T02440137  RH  051%=      5-min Rain = 0
KST2 241746Z 25011KT 25/14 A3004 RMK A01 T02450136  RH  051%=      5-min Rain = 0
KST2 241747Z 27015KT 25/14 A3004 RMK A01 T02450136  RH  051%=      5-min Rain = 0
KST2 241748Z 27013KT 25/14 A3004 RMK A01 T02450135  RH  050%=      5-min Rain = 0
KST2 241749Z 28013KT 25/13 A3004 RMK A01 T02460134  RH  050%=      5-min Rain = 0
KST2 241750Z 29011KT 24/13 A3004 RMK A01 T02430132  RH  050%=      5-min Rain = 0
KST2 241751Z 27014KT 24/13 A3003 RMK A01 T02420133  RH  050%=      5-min Rain = 0
KST2 241752Z 26011KT 24/14 A3003 RMK A01 T02430135  RH  051%=      5-min Rain = 0
KST2 241753Z 26016KT 24/14 A3003 RMK A01 T02440138  RH  052%=      5-min Rain = 0
KST2 241754Z 25013KT 25/14 A3003 RMK A01 T02460139  RH  051%=      5-min Rain = 0
KST2 241755Z 25013KT 25/14 A3003 RMK A01 T02470140  RH  051%=      5-min Rain = 0
KST2 241756Z 25012KT 25/14 A3003 RMK A01 T02480140  RH  051%=      5-min Rain = 0
KST2 241757Z 26010KT 25/14 A3003 RMK A01 T02470140  RH  051%=      5-min Rain = 0
KST2 241758Z 26012KT 24/14 A3003 RMK A01 T02440138  RH  052%=      5-min Rain = 0
KST2 241759Z 26009KT 24/14 A3003 RMK A01 T02420138  RH  052%=      5-min Rain = 0
KST2 241800Z 27011G16KT 24/14 A3003 RMK A01 T02430139  RH  052%=      5-min Rain = 0
KST2 241801Z 27017KT 25/14 A3003 RMK A01 T02450140  RH  052%=      5-min Rain = 0
KST2 241802Z 27015G20KT 25/14 A3004 RMK A01 T02490141  RH  051%=      5-min Rain = 0
KST2 241803Z 27011KT 25/14 A3004 RMK A01 T02500141  RH  051%=      5-min Rain = 0
KST2 241804Z 27010KT 25/14 A3003 RMK A01 T02520141  RH  050%=      5-min Rain = 0
KST2 241805Z 29012KT 25/14 A3003 RMK A01 T02530139  RH  049%=      5-min Rain = 0
KST2 241806Z 28010KT 25/14 A3003 RMK A01 T02500139  RH  050%=      5-min Rain = 0
KST2 241807Z 26012KT 25/14 A3003 RMK A01 T02470139  RH  051%=      5-min Rain = 0
KST2 241808Z 24011KT 25/14 A3003 RMK A01 T02460140  RH  052%=      5-min Rain = 0
KST2 241809Z 25013KT 25/14 A3003 RMK A01 T02460142  RH  052%=      5-min Rain = 0
KST2 241810Z 26013KT 25/14 A3003 RMK A01 T02480140  RH  051%=      5-min Rain = 0
KST2 241811Z 24010KT 25/14 A3003 RMK A01 T02480141  RH  051%=      5-min Rain = 0
KST2 241812Z 27008KT 25/14 A3003 RMK A01 T02480141  RH  052%=      5-min Rain = 0
KST2 241813Z 28013KT 25/14 A3003 RMK A01 T02490140  RH  051%=      5-min Rain = 0
KST2 241814Z 29016KT 25/14 A3003 RMK A01 T02490138  RH  050%=      5-min Rain = 0
KST2 241815Z 26015KT 25/14 A3003 RMK A01 T02490139  RH  050%=      5-min Rain = 0
KST2 241816Z 27011KT 25/14 A3003 RMK A01 T02490138  RH  050%=      5-min Rain = 0
KST2 241817Z 26012KT 25/14 A3003 RMK A01 T02500139  RH  050%=      5-min Rain = 0
KST2 241818Z 25010KT 25/14 A3003 RMK A01 T02510139  RH  050%=      5-min Rain = 0
KST2 241819Z 26009KT 25/14 A3003 RMK A01 T02500140  RH  050%=      5-min Rain = 0
KST2 241820Z 27008KT 25/14 A3003 RMK A01 T02510142  RH  051%=      5-min Rain = 0
KST2 241821Z 28009KT 25/14 A3003 RMK A01 T02530140  RH  049%=      5-min Rain = 0
KST2 241822Z 28012KT 25/14 A3003 RMK A01 T02520141  RH  050%=      5-min Rain = 0
KST2 241823Z 27013KT 25/14 A3003 RMK A01 T02530139  RH  049%=      5-min Rain = 0
KST2 241824Z 27013KT 26/14 A3003 RMK A01 T02550140  RH  049%=      5-min Rain = 0
KST2 241825Z 27011KT 26/14 A3003 RMK A01 T02560139  RH  048%=      5-min Rain = 0
KST2 241826Z 28010G15KT 25/14 A3003 RMK A01 T02540137  RH  048%=      5-min Rain = 0
KST2 241827Z 27009KT 25/14 A3003 RMK A01 T02500139  RH  050%=      5-min Rain = 0
KST2 241828Z 27012KT 25/14 A3003 RMK A01 T02500139  RH  050%=      5-min Rain = 0
KST2 241829Z 27011G16KT 25/14 A3003 RMK A01 T02530139  RH  049%=      5-min Rain = 0
KST2 241830Z 28010KT 25/14 A3003 RMK A01 T02540137  RH  048%=      5-min Rain = 0
KST2 241831Z 29012KT 25/14 A3003 RMK A01 T02530138  RH  049%=      5-min Rain = 0
KST2 241832Z 28011KT 25/14 A3003 RMK A01 T02520135  RH  048%=      5-min Rain = 0
KST2 241833Z 27010KT 25/14 A3003 RMK A01 T02500137  RH  049%=      5-min Rain = 0
KST2 241834Z 25011KT 25/14 A3003 RMK A01 T02500136  RH  049%=      5-min Rain = 0
KST2 241835Z 25012KT 25/14 A3003 RMK A01 T02520136  RH  048%=      5-min Rain = 0
KST2 241836Z 25008KT 25/14 A3003 RMK A01 T02510135  RH  049%=      5-min Rain = 0
KST2 241837Z 25011KT 25/14 A3002 RMK A01 T02500137  RH  050%=      5-min Rain = 0
KST2 241838Z 25010KT 26/14 A3003 RMK A01 T02570139  RH  048%=      5-min Rain = 0
KST2 241839Z 26009KT 26/14 A3003 RMK A01 T02580136  RH  047%=      5-min Rain = 0
KST2 241840Z 29008KT 26/14 A3003 RMK A01 T02550135  RH  047%=      5-min Rain = 0
KST2 241841Z 27007KT 25/13 A3003 RMK A01 T02520134  RH  048%=      5-min Rain = 0
KST2 241842Z 27010G19KT 25/13 A3003 RMK A01 T02500134  RH  048%=      5-min Rain = 0
KST2 241843Z 25013KT 25/13 A3002 RMK A01 T02530133  RH  048%=      5-min Rain = 0
KST2 241844Z 25010KT 25/13 A3002 RMK A01 T02530132  RH  047%=      5-min Rain = 0
KST2 241845Z 27014KT 25/13 A3002 RMK A01 T02530131  RH  047%=      5-min Rain = 0
KST2 241846Z 28010KT 25/13 A3002 RMK A01 T02520131  RH  047%=      5-min Rain = 0
KST2 241847Z 29010KT 25/13 A3002 RMK A01 T02520131  RH  047%=      5-min Rain = 0
KST2 241848Z 28012G20KT 25/13 A3002 RMK A01 T02540133  RH  047%=      5-min Rain = 0
KST2 241849Z 28013KT 26/13 A3002 RMK A01 T02590133  RH  046%=      5-min Rain = 0
KST2 241850Z 28011G17KT 26/13 A3002 RMK A01 T02570132  RH  046%=      5-min Rain = 0
KST2 241851Z 26012KT 26/13 A3002 RMK A01 T02550131  RH  046%=      5-min Rain = 0
KST2 241852Z 25011KT 26/13 A3002 RMK A01 T02550131  RH  046%=      5-min Rain = 0
KST2 241853Z 26015KT 25/13 A3002 RMK A01 T02540133  RH  047%=      5-min Rain = 0
KST2 241854Z 25013KT 26/13 A3002 RMK A01 T02560133  RH  046%=      5-min Rain = 0
KST2 241855Z 27011KT 26/13 A3002 RMK A01 T02590133  RH  046%=      5-min Rain = 0
KST2 241856Z 25012KT 26/13 A3002 RMK A01 T02580133  RH  046%=      5-min Rain = 0
KST2 241857Z 25011KT 26/13 A3002 RMK A01 T02550132  RH  046%=      5-min Rain = 0
KST2 241858Z 26014KT 25/13 A3002 RMK A01 T02520133  RH  048%=      5-min Rain = 0
KST2 241859Z 24009KT 25/13 A3002 RMK A01 T02540132  RH  047%=      5-min Rain = 0
KST2 241900Z 27007KT 25/13 A3002 RMK A01 T02520134  RH  048%=      5-min Rain = 0
KST2 241901Z 27015G22KT 25/13 A3002 RMK A01 T02540134  RH  047%=      5-min Rain = 0
KST2 241902Z 27012G17KT 26/13 A3002 RMK A01 T02570132  RH  046%=      5-min Rain = 0
KST2 241903Z 26011KT 26/14 A3002 RMK A01 T02580136  RH  047%=      5-min Rain = 0
KST2 241904Z 27012KT 26/13 A3002 RMK A01 T02610134  RH  046%=      5-min Rain = 0
KST2 241905Z 30014KT 26/13 A3002 RMK A01 T02590134  RH  046%=      5-min Rain = 0
KST2 241906Z 30011KT 26/13 A3002 RMK A01 T02560133  RH  046%=      5-min Rain = 0
KST2 241907Z 30011KT 25/13 A3002 RMK A01 T02540132  RH  047%=      5-min Rain = 0
KST2 241908Z 29014KT 25/13 A3002 RMK A01 T02540133  RH  047%=      5-min Rain = 0
KST2 241909Z 29014G19KT 25/13 A3002 RMK A01 T02530132  RH  047%=      5-min Rain = 0
KST2 241910Z 28014KT 25/13 A3002 RMK A01 T02540130  RH  046%=      5-min Rain = 0
KST2 241911Z 27013KT 26/13 A3002 RMK A01 T02550131  RH  046%=      5-min Rain = 0
KST2 241912Z 26009KT 26/13 A3002 RMK A01 T02550130  RH  046%=      5-min Rain = 0
KST2 241913Z 27012KT 26/13 A3002 RMK A01 T02570133  RH  046%=      5-min Rain = 0
KST2 241914Z 26012KT 26/14 A3002 RMK A01 T02630135  RH  045%=      5-min Rain = 0
KST2 241915Z 26011KT 27/13 A3002 RMK A01 T02650134  RH  044%=      5-min Rain = 0
KST2 241916Z 27011KT 26/13 A3002 RMK A01 T02640133  RH  044%=      5-min Rain = 0
KST2 241917Z 28013KT 26/13 A3002 RMK A01 T02600131  RH  045%=      5-min Rain = 0
KST2 241918Z 28013KT 26/13 A3002 RMK A01 T02590130  RH  045%=      5-min Rain = 0
KST2 241919Z 28010KT 26/13 A3002 RMK A01 T02570129  RH  045%=      5-min Rain = 0
KST2 241920Z 29011KT 26/13 A3002 RMK A01 T02570130  RH  045%=      5-min Rain = 0
KST2 241921Z 30015KT 26/13 A3001 RMK A01 T02600130  RH  044%=      5-min Rain = 0
KST2 241922Z 29014KT 26/13 A3002 RMK A01 T02610130  RH  044%=      5-min Rain = 0
KST2 241923Z 29013KT 26/13 A3002 RMK A01 T02620128  RH  043%=      5-min Rain = 0
KST2 241924Z 30013G18KT 26/13 A3002 RMK A01 T02600127  RH  044%=      5-min Rain = 0
KST2 241925Z 27012KT 26/13 A3001 RMK A01 T02590129  RH  044%=      5-min Rain = 0
KST2 241926Z 27016KT 26/13 A3002 RMK A01 T02580129  RH  045%=      5-min Rain = 0
KST2 241927Z 26012KT 26/13 A3002 RMK A01 T02570130  RH  045%=      5-min Rain = 0
KST2 241928Z 26010KT 26/13 A3002 RMK A01 T02550129  RH  046%=      5-min Rain = 0
KST2 241929Z 27010KT 25/13 A3002 RMK A01 T02520129  RH  047%=      5-min Rain = 0
KST2 241930Z 29013KT 26/13 A3002 RMK A01 T02550127  RH  045%=      5-min Rain = 0
KST2 241931Z 30009KT 26/13 A3002 RMK A01 T02560127  RH  045%=      5-min Rain = 0
KST2 241932Z 30009KT 25/13 A3001 RMK A01 T02540127  RH  045%=      5-min Rain = 0
KST2 241933Z 27015KT 26/13 A3001 RMK A01 T02560129  RH  045%=      5-min Rain = 0
KST2 241934Z 28014KT 26/13 A3001 RMK A01 T02600126  RH  043%=      5-min Rain = 0
KST2 241935Z 27014KT 26/13 A3001 RMK A01 T02590125  RH  043%=      5-min Rain = 0
KST2 241936Z 28012KT 26/12 A3001 RMK A01 T02570124  RH  044%=      5-min Rain = 0
KST2 241937Z 28015KT 26/12 A3001 RMK A01 T02570124  RH  043%=      5-min Rain = 0
KST2 241938Z 29010KT 26/12 A3001 RMK A01 T02570123  RH  043%=      5-min Rain = 0
KST2 241939Z 29008KT 26/12 A3001 RMK A01 T02550124  RH  044%=      5-min Rain = 0
KST2 241940Z 28010G15KT 26/13 A3001 RMK A01 T02560125  RH  044%=      5-min Rain = 0
KST2 241941Z 27014KT 26/13 A3001 RMK A01 T02580127  RH  044%=      5-min Rain = 0
KST2 241942Z 29015KT 26/13 A3001 RMK A01 T02590127  RH  044%=      5-min Rain = 0
KST2 241943Z 30013KT 26/13 A3001 RMK A01 T02600126  RH  043%=      5-min Rain = 0
KST2 241944Z 30012KT 26/13 A3001 RMK A01 T02610127  RH  043%=      5-min Rain = 0
KST2 241945Z 29011KT 26/13 A3001 RMK A01 T02630126  RH  043%=      5-min Rain = 0
KST2 241946Z 31011G17KT 26/13 A3001 RMK A01 T02600126  RH  044%=      5-min Rain = 0
KST2 241947Z 32013KT 26/13 A3001 RMK A01 T02610126  RH  043%=      5-min Rain = 0
KST2 241948Z 31012G18KT 26/13 A3001 RMK A01 T02610125  RH  043%=      5-min Rain = 0
KST2 241949Z 32010KT 26/13 A3001 RMK A01 T02600125  RH  043%=      5-min Rain = 0
KST2 241950Z 30011KT 26/13 A3001 RMK A01 T02600125  RH  043%=      5-min Rain = 0
KST2 241951Z 29012KT 26/13 A3001 RMK A01 T02620125  RH  043%=      5-min Rain = 0
KST2 241952Z 28009KT 26/12 A3001 RMK A01 T02600124  RH  043%=      5-min Rain = 0
KST2 241953Z 26006KT 26/13 A30 RMK A01 T02590125  RH  043%=      5-min Rain = 0
KST2 241954Z 29007G12KT 26/13 A30 RMK A01 T02580125  RH  044%=      5-min Rain = 0
KST2 241955Z 30012KT 26/13 A30 RMK A01 T02590125  RH  043%=      5-min Rain = 0
KST2 241956Z 30010KT 26/12 A30 RMK A01 T02590122  RH  043%=      5-min Rain = 0
KST2 241957Z 30012KT 26/12 A30 RMK A01 T02560123  RH  044%=      5-min Rain = 0
KST2 241958Z 29012KT 26/12 A30 RMK A01 T02580123  RH  043%=      5-min Rain = 0
KST2 241959Z 29008KT 26/12 A30 RMK A01 T02580122  RH  043%=      5-min Rain = 0
KST2 242000Z 30009KT 26/12 A30 RMK A01 T02570124  RH  044%=      5-min Rain = 0
KST2 242001Z 24010KT 26/12 A30 RMK A01 T02600124  RH  043%=      5-min Rain = 0
KST2 242002Z 23008KT 26/12 A30 RMK A01 T02610124  RH  042%=      5-min Rain = 0
KST2 242003Z 22006KT 26/12 A30 RMK A01 T02600123  RH  043%=      5-min Rain = 0
KST2 242004Z 25005KT 26/12 A30 RMK A01 T02580124  RH  043%=      5-min Rain = 0
KST2 242005Z 28008KT 26/12 A30 RMK A01 T02580124  RH  043%=      5-min Rain = 0
KST2 242006Z 28010KT 26/12 A30 RMK A01 T02600122  RH  042%=      5-min Rain = 0
KST2 242007Z 29008KT 26/12 A2999 RMK A01 T02600123  RH  042%=      5-min Rain = 0
KST2 242008Z 29010KT 26/12 A2999 RMK A01 T02600121  RH  042%=      5-min Rain = 0
KST2 242009Z 28012KT 26/12 A2999 RMK A01 T02610121  RH  042%=      5-min Rain = 0
KST2 242010Z 28013KT 26/12 A2999 RMK A01 T02620119  RH  041%=      5-min Rain = 0
KST2 242011Z 27011KT 26/12 A2999 RMK A01 T02620119  RH  041%=      5-min Rain = 0
KST2 242012Z 27007KT 26/12 A2999 RMK A01 T02620119  RH  041%=      5-min Rain = 0
KST2 242013Z 28009KT 26/12 A2999 RMK A01 T02610119  RH  041%=      5-min Rain = 0
KST2 242014Z 29012KT 26/12 A2999 RMK A01 T02600119  RH  041%=      5-min Rain = 0
KST2 242015Z 29011KT 26/12 A2999 RMK A01 T02610118  RH  041%=      5-min Rain = 0
KST2 242016Z 29007KT 26/12 A2999 RMK A01 T02640119  RH  041%=      5-min Rain = 0
KST2 242017Z 29013KT 26/12 A2999 RMK A01 T02640119  RH  040%=      5-min Rain = 0
KST2 242018Z 30010KT 27/12 A2999 RMK A01 T02660118  RH  040%=      5-min Rain = 0
KST2 242019Z 31009KT 27/12 A2999 RMK A01 T02680119  RH  040%=      5-min Rain = 0
KST2 242020Z 33009KT 27/12 A2999 RMK A01 T02660118  RH  040%=      5-min Rain = 0
KST2 242021Z 30011KT 26/12 A2999 RMK A01 T02640117  RH  040%=      5-min Rain = 0
KST2 242022Z 30010KT 27/11 A2999 RMK A01 T02650114  RH  039%=      5-min Rain = 0
KST2 242023Z 30008KT 26/12 A2999 RMK A01 T02630116  RH  040%=      5-min Rain = 0
KST2 242024Z 31010KT 26/12 A2999 RMK A01 T02630115  RH  040%=      5-min Rain = 0
KST2 242025Z 32013KT 26/11 A2999 RMK A01 T02620114  RH  039%=      5-min Rain = 0
KST2 242026Z 31008KT 26/12 A2999 RMK A01 T02610115  RH  040%=      5-min Rain = 0
KST2 242027Z 30009KT 26/11 A2999 RMK A01 T02640113  RH  039%=      5-min Rain = 0
KST2 242028Z 31013KT 26/11 A2998 RMK A01 T02630112  RH  039%=      5-min Rain = 0
KST2 242029Z 31012KT 26/11 A2998 RMK A01 T02610113  RH  039%=      5-min Rain = 0
KST2 242030Z 31009KT 26/11 A2998 RMK A01 T02610112  RH  039%=      5-min Rain = 0
KST2 242031Z 30008KT 26/11 A2998 RMK A01 T02610114  RH  040%=      5-min Rain = 0
KST2 242032Z 28008KT 26/11 A2998 RMK A01 T02640113  RH  039%=      5-min Rain = 0
KST2 242033Z 28007KT 27/11 A2998 RMK A01 T02650113  RH  039%=      5-min Rain = 0
KST2 242034Z 30009KT 26/11 A2998 RMK A01 T02640113  RH  039%=      5-min Rain = 0
KST2 242035Z 30011KT 27/11 A2998 RMK A01 T02650113  RH  039%=      5-min Rain = 0
KST2 242036Z 31008G13KT 27/11 A2998 RMK A01 T02660112  RH  038%=      5-min Rain = 0
KST2 242037Z 31008KT 26/11 A2998 RMK A01 T02630112  RH  039%=      5-min Rain = 0
KST2 242038Z 30009KT 26/11 A2998 RMK A01 T02620113  RH  039%=      5-min Rain = 0
KST2 242039Z 31009KT 27/11 A2998 RMK A01 T02650114  RH  039%=      5-min Rain = 0
KST2 242040Z 32009KT 27/11 A2998 RMK A01 T02670114  RH  039%=      5-min Rain = 0
KST2 242041Z 32011KT 27/11 A2998 RMK A01 T02660114  RH  038%=      5-min Rain = 0
KST2 242042Z 30012KT 27/11 A2998 RMK A01 T02680114  RH  038%=      5-min Rain = 0
KST2 242043Z 29011KT 27/11 A2998 RMK A01 T02690114  RH  038%=      5-min Rain = 0
KST2 242044Z 30009KT 27/11 A2998 RMK A01 T02690114  RH  038%=      5-min Rain = 0
KST2 242045Z 33009KT 27/11 A2998 RMK A01 T02700114  RH  038%=      5-min Rain = 0
KST2 242046Z 33005KT 27/11 A2998 RMK A01 T02690112  RH  038%=      5-min Rain = 0
KST2 242047Z 35003KT 27/11 A2998 RMK A01 T02650112  RH  038%=      5-min Rain = 0
KST2 242048Z 33003KT 26/11 A2998 RMK A01 T02630112  RH  039%=      5-min Rain = 0
KST2 242049Z 31005KT 26/11 A2998 RMK A01 T02630113  RH  039%=      5-min Rain = 0
KST2 242050Z 30006KT 26/12 A2998 RMK A01 T02640115  RH  039%=      5-min Rain = 0
KST2 242051Z 29009KT 27/11 A2998 RMK A01 T02670114  RH  038%=      5-min Rain = 0
KST2 242052Z 31011KT 27/12 A2998 RMK A01 T02690115  RH  038%=      5-min Rain = 0
KST2 242053Z 30011KT 27/11 A2998 RMK A01 T02710114  RH  038%=      5-min Rain = 0
KST2 242054Z 30009KT 27/11 A2998 RMK A01 T02700113  RH  038%=      5-min Rain = 0
KST2 242055Z 29008KT 27/11 A2998 RMK A01 T02670112  RH  038%=      5-min Rain = 0
KST2 242056Z 28003KT 26/11 A2998 RMK A01 T02640110  RH  038%=      5-min Rain = 0
KST2 242057Z 28005KT 26/11 A2998 RMK A01 T02620112  RH  039%=      5-min Rain = 0
KST2 242058Z 30006KT 26/11 A2998 RMK A01 T02630113  RH  039%=      5-min Rain = 0
KST2 242059Z 32009KT 27/11 A2998 RMK A01 T02670113  RH  038%=      5-min Rain = 0
KST2 242100Z 32010KT 27/11 A2998 RMK A01 T02690112  RH  038%=      5-min Rain = 0
KST2 242101Z 31010KT 27/11 A2998 RMK A01 T02690113  RH  038%=      5-min Rain = 0
KST2 242102Z 30008KT 27/11 A2998 RMK A01 T02690111  RH  037%=      5-min Rain = 0
KST2 242103Z 33008KT 27/11 A2998 RMK A01 T02680112  RH  038%=      5-min Rain = 0
KST2 242104Z 35005KT 27/11 A2998 RMK A01 T02660110  RH  037%=      5-min Rain = 0
KST2 242105Z 32005KT 26/11 A2997 RMK A01 T02630109  RH  038%=      5-min Rain = 0
KST2 242106Z 33005KT 26/11 A2997 RMK A01 T02630109  RH  038%=      5-min Rain = 0
KST2 242107Z 32006KT 26/11 A2997 RMK A01 T02630112  RH  039%=      5-min Rain = 0
KST2 242108Z 34009KT 27/11 A2997 RMK A01 T02660112  RH  038%=      5-min Rain = 0
KST2 242109Z 32010KT 27/12 A2997 RMK A01 T02720116  RH  038%=      5-min Rain = 0
KST2 242110Z 31010KT 27/11 A2997 RMK A01 T02730113  RH  037%=      5-min Rain = 0
KST2 242111Z 32009KT 27/11 A2997 RMK A01 T02690110  RH  037%=      5-min Rain = 0
KST2 242112Z 32010KT 27/11 A2997 RMK A01 T02680112  RH  038%=      5-min Rain = 0
KST2 242113Z 32008KT 27/11 A2997 RMK A01 T02690111  RH  037%=      5-min Rain = 0
KST2 242114Z 32012KT 27/11 A2997 RMK A01 T02700110  RH  037%=      5-min Rain = 0
KST2 242115Z 32012KT 27/11 A2997 RMK A01 T02710107  RH  036%=      5-min Rain = 0
KST2 242116Z 32011KT 27/11 A2997 RMK A01 T02710107  RH  036%=      5-min Rain = 0
KST2 242117Z 32009KT 27/11 A2997 RMK A01 T02690107  RH  036%=      5-min Rain = 0
KST2 242118Z 34012KT 27/11 A2997 RMK A01 T02680108  RH  037%=      5-min Rain = 0
KST2 242119Z 31008KT 27/11 A2997 RMK A01 T02690107  RH  036%=      5-min Rain = 0
KST2 242120Z 34005KT 27/11 A2997 RMK A01 T02680106  RH  036%=      5-min Rain = 0
KST2 242121Z 02006KT 27/11 A2997 RMK A01 T02660105  RH  036%=      5-min Rain = 0
KST2 242122Z 01008KT 27/10 A2997 RMK A01 T02660104  RH  036%=      5-min Rain = 0
KST2 242123Z 36006KT 27/10 A2997 RMK A01 T02660104  RH  036%=      5-min Rain = 0
KST2 242124Z 34009KT 27/10 A2997 RMK A01 T02650103  RH  036%=      5-min Rain = 0
KST2 242125Z 34012KT 26/10 A2997 RMK A01 T02630100  RH  036%=      5-min Rain = 0
KST2 242126Z 35011KT 26/10 A2997 RMK A01 T02630101  RH  036%=      5-min Rain = 0
KST2 242127Z 35011KT 26/10 A2997 RMK A01 T02620102  RH  036%=      5-min Rain = 0
KST2 242128Z 34012KT 26/10 A2997 RMK A01 T02630102  RH  036%=      5-min Rain = 0
KST2 242129Z 34010KT 26/10 A2997 RMK A01 T02640102  RH  036%=      5-min Rain = 0
KST2 242130Z 33011KT 26/10 A2997 RMK A01 T02640103  RH  036%=      5-min Rain = 0
KST2 242131Z 34009KT 26/10 A2997 RMK A01 T02640103  RH  036%=      5-min Rain = 0
KST2 242132Z 34009KT 27/10 A2997 RMK A01 T02660103  RH  036%=      5-min Rain = 0
KST2 242133Z 35010KT 27/10 A2996 RMK A01 T02670099  RH  035%=      5-min Rain = 0
KST2 242134Z 35010KT 27/10 A2997 RMK A01 T02660096  RH  034%=      5-min Rain = 0
KST2 242135Z 36010KT 27/09 A2996 RMK A01 T02660094  RH  034%=      5-min Rain = 0
KST2 242136Z 33010KT 27/10 A2997 RMK A01 T02680101  RH  035%=      5-min Rain = 0
KST2 242137Z 34011KT 27/10 A2997 RMK A01 T02690103  RH  035%=      5-min Rain = 0
KST2 242138Z 34010KT 27/10 A2997 RMK A01 T02670099  RH  035%=      5-min Rain = 0
KST2 242139Z 00013KT 27/09 A2997 RMK A01 T02660093  RH  034%=      5-min Rain = 0
KST2 242140Z 36015KT 27/09 A2997 RMK A01 T02660090  RH  033%=      5-min Rain = 0
KST2 242141Z 00013KT 27/09 A2997 RMK A01 T02650088  RH  033%=      5-min Rain = 0
KST2 242142Z 36012KT 26/09 A2997 RMK A01 T02640089  RH  033%=      5-min Rain = 0
KST2 242143Z 01014KT 26/09 A2997 RMK A01 T02640089  RH  033%=      5-min Rain = 0
KST2 242144Z 00013KT 27/09 A2997 RMK A01 T02650087  RH  033%=      5-min Rain = 0
KST2 242145Z 01012KT 26/08 A2997 RMK A01 T02640084  RH  032%=      5-min Rain = 0
KST2 242146Z 35014KT 26/09 A2997 RMK A01 T02640085  RH  032%=      5-min Rain = 0
KST2 242147Z 35015KT 26/08 A2997 RMK A01 T02640081  RH  031%=      5-min Rain = 0
KST2 242148Z 36015KT 26/08 A2997 RMK A01 T02630081  RH  031%=      5-min Rain = 0
KST2 242149Z 36013KT 26/08 A2997 RMK A01 T02640082  RH  032%=      5-min Rain = 0
KST2 242150Z 00012KT 26/08 A2997 RMK A01 T02630081  RH  032%=      5-min Rain = 0
KST2 242151Z 00013KT 26/08 A2997 RMK A01 T02640079  RH  031%=      5-min Rain = 0
KST2 242152Z 36015KT 27/08 A2997 RMK A01 T02650080  RH  031%=      5-min Rain = 0
KST2 242153Z 35014KT 26/07 A2997 RMK A01 T02620074  RH  030%=      5-min Rain = 0
KST2 242154Z 00015KT 26/08 A2997 RMK A01 T02580075  RH  031%=      5-min Rain = 0
KST2 242155Z 01012KT 26/08 A2997 RMK A01 T02600076  RH  031%=      5-min Rain = 0
KST2 242156Z 02013KT 26/08 A2997 RMK A01 T02620076  RH  031%=      5-min Rain = 0
KST2 242157Z 00014KT 26/08 A2997 RMK A01 T02640075  RH  030%=      5-min Rain = 0
KST2 242158Z 00016KT 26/07 A2997 RMK A01 T02630074  RH  030%=      5-min Rain = 0
KST2 242159Z 00013KT 26/07 A2997 RMK A01 T02620070  RH  029%=      5-min Rain = 0
KST2 242200Z 00013KT 26/07 A2997 RMK A01 T02620071  RH  030%=      5-min Rain = 0
KST2 242201Z 36013KT 26/07 A2997 RMK A01 T02640072  RH  030%=      5-min Rain = 0
KST2 242202Z 00014KT 26/07 A2997 RMK A01 T02640073  RH  030%=      5-min Rain = 0
KST2 242203Z 36015KT 27/07 A2997 RMK A01 T02660072  RH  029%=      5-min Rain = 0
KST2 242204Z 00014KT 27/07 A2997 RMK A01 T02650071  RH  029%=      5-min Rain = 0
KST2 242205Z 36014KT 26/07 A2997 RMK A01 T02640072  RH  030%=      5-min Rain = 0
KST2 242206Z 00014KT 26/07 A2997 RMK A01 T02640072  RH  029%=      5-min Rain = 0
KST2 242207Z 35013G18KT 26/08 A2997 RMK A01 T02640075  RH  030%=      5-min Rain = 0
KST2 242208Z 35014KT 26/07 A2997 RMK A01 T02630073  RH  030%=      5-min Rain = 0
KST2 242209Z 34014KT 26/07 A2997 RMK A01 T02620073  RH  030%=      5-min Rain = 0
KST2 242210Z 35013KT 26/07 A2997 RMK A01 T02620073  RH  030%=      5-min Rain = 0
KST2 242211Z 35014KT 26/07 A2997 RMK A01 T02610070  RH  030%=      5-min Rain = 0
KST2 242212Z 36016KT 26/07 A2997 RMK A01 T02600070  RH  030%=      5-min Rain = 0
KST2 242213Z 35016KT 26/07 A2997 RMK A01 T02600070  RH  030%=      5-min Rain = 0
KST2 242214Z 35016KT 26/07 A2997 RMK A01 T02580069  RH  030%=      5-min Rain = 0
KST2 242215Z 35013KT 26/07 A2997 RMK A01 T02570068  RH  030%=      5-min Rain = 0
KST2 242216Z 35014KT 26/07 A2997 RMK A01 T02570069  RH  030%=      5-min Rain = 0
KST2 242217Z 35015KT 26/07 A2997 RMK A01 T02570069  RH  030%=      5-min Rain = 0
KST2 242218Z 35014KT 26/07 A2997 RMK A01 T02580069  RH  030%=      5-min Rain = 0
KST2 242219Z 35012KT 26/07 A2997 RMK A01 T02580070  RH  030%=      5-min Rain = 0
KST2 242220Z 35013KT 26/07 A2997 RMK A01 T02580071  RH  030%=      5-min Rain = 0
KST2 242221Z 00012KT 26/07 A2997 RMK A01 T02580072  RH  031%=      5-min Rain = 0
KST2 242222Z 01014KT 26/07 A2997 RMK A01 T02590070  RH  030%=      5-min Rain = 0
KST2 242223Z 01016KT 26/07 A2996 RMK A01 T02590070  RH  030%=      5-min Rain = 0
KST2 242224Z 02017KT 26/07 A2996 RMK A01 T02610070  RH  030%=      5-min Rain = 0
KST2 242225Z 01017KT 26/07 A2996 RMK A01 T02610069  RH  030%=      5-min Rain = 0
KST2 242226Z 01017KT 26/07 A2996 RMK A01 T02610070  RH  030%=      5-min Rain = 0
KST2 242227Z 01016G21KT 26/07 A2996 RMK A01 T02590068  RH  030%=      5-min Rain = 0
KST2 242228Z 01014KT 26/07 A2996 RMK A01 T02560067  RH  030%=      5-min Rain = 0
KST2 242229Z 02014KT 26/07 A2996 RMK A01 T02560071  RH  031%=      5-min Rain = 0
KST2 242230Z 02015KT 26/07 A2996 RMK A01 T02580069  RH  030%=      5-min Rain = 0
KST2 242231Z 01014KT 26/07 A2996 RMK A01 T02570069  RH  030%=      5-min Rain = 0
KST2 242232Z 01014KT 26/07 A2996 RMK A01 T02570072  RH  031%=      5-min Rain = 0
KST2 242233Z 01015KT 26/07 A2996 RMK A01 T02570071  RH  030%=      5-min Rain = 0
KST2 242234Z 00015KT 26/07 A2996 RMK A01 T02590072  RH  031%=      5-min Rain = 0
KST2 242235Z 35014KT 26/07 A2996 RMK A01 T02590070  RH  030%=      5-min Rain = 0
KST2 242236Z 35013KT 26/07 A2996 RMK A01 T02560071  RH  031%=      5-min Rain = 0
KST2 242237Z 00015KT 26/07 A2996 RMK A01 T02560071  RH  031%=      5-min Rain = 0
KST2 242238Z 36014KT 26/07 A2996 RMK A01 T02550069  RH  031%=      5-min Rain = 0
KST2 242239Z 36013KT 25/07 A2996 RMK A01 T02540070  RH  031%=      5-min Rain = 0
KST2 242240Z 01013KT 25/07 A2996 RMK A01 T02530069  RH  031%=      5-min Rain = 0
KST2 242241Z 01013KT 25/07 A2996 RMK A01 T02520071  RH  031%=      5-min Rain = 0
KST2 242242Z 01012KT 25/07 A2996 RMK A01 T02520069  RH  031%=      5-min Rain = 0
KST2 242243Z 00015KT 25/07 A2996 RMK A01 T02510069  RH  031%=      5-min Rain = 0
KST2 242244Z 01014KT 25/07 A2997 RMK A01 T02530072  RH  032%=      5-min Rain = 0
KST2 242245Z 01015KT 25/07 A2997 RMK A01 T02540071  RH  031%=      5-min Rain = 0
KST2 242246Z 01014KT 25/07 A2997 RMK A01 T02540070  RH  031%=      5-min Rain = 0
KST2 242247Z 02014KT 26/07 A2997 RMK A01 T02550071  RH  031%=      5-min Rain = 0
KST2 242248Z 01015KT 26/07 A2997 RMK A01 T02580071  RH  030%=      5-min Rain = 0
KST2 242249Z 01015KT 26/07 A2997 RMK A01 T02560072  RH  031%=      5-min Rain = 0
KST2 242250Z 01017KT 25/07 A2997 RMK A01 T02540070  RH  031%=      5-min Rain = 0
KST2 242251Z 02014KT 25/07 A2997 RMK A01 T02530068  RH  031%=      5-min Rain = 0
KST2 242252Z 02015KT 25/07 A2997 RMK A01 T02520068  RH  031%=      5-min Rain = 0
KST2 242253Z 02015KT 25/07 A2997 RMK A01 T02530069  RH  031%=      5-min Rain = 0
KST2 242254Z 01015KT 26/07 A2997 RMK A01 T02550069  RH  031%=      5-min Rain = 0
KST2 242255Z 01014KT 25/07 A2997 RMK A01 T02540070  RH  031%=      5-min Rain = 0
KST2 242256Z 02013KT 25/07 A2997 RMK A01 T02530070  RH  031%=      5-min Rain = 0
KST2 242257Z 03015KT 25/07 A2997 RMK A01 T02540071  RH  031%=      5-min Rain = 0
KST2 242258Z 02014KT 25/07 A2997 RMK A01 T02520069  RH  031%=      5-min Rain = 0
KST2 242259Z 02014KT 25/07 A2997 RMK A01 T02510069  RH  031%=      5-min Rain = 0
KST2 242300Z 02013KT 25/07 A2997 RMK A01 T02500068  RH  031%=      5-min Rain = 0
KST2 242301Z 02013KT 25/07 A2997 RMK A01 T02500069  RH  031%=      5-min Rain = 0
KST2 242302Z 02011KT 25/07 A2997 RMK A01 T02490068  RH  031%=      5-min Rain = 0
KST2 242303Z 02014KT 25/07 A2997 RMK A01 T02490069  RH  032%=      5-min Rain = 0
KST2 242304Z 01014KT 25/07 A2997 RMK A01 T02490069  RH  032%=      5-min Rain = 0
KST2 242305Z 00014KT 25/07 A2997 RMK A01 T02520074  RH  032%=      5-min Rain = 0
KST2 242306Z 01013KT 25/07 A2997 RMK A01 T02520073  RH  032%=      5-min Rain = 0
KST2 242307Z 02014KT 25/07 A2997 RMK A01 T02520072  RH  032%=      5-min Rain = 0
KST2 242308Z 01014KT 25/07 A2997 RMK A01 T02510073  RH  032%=      5-min Rain = 0
KST2 242309Z 01015KT 25/07 A2997 RMK A01 T02510072  RH  032%=      5-min Rain = 0
KST2 242310Z 01015KT 25/07 A2998 RMK A01 T02500072  RH  032%=      5-min Rain = 0
KST2 242311Z 01016KT 25/07 A2998 RMK A01 T02490071  RH  032%=      5-min Rain = 0
KST2 242312Z 01014KT 25/07 A2998 RMK A01 T02480071  RH  032%=      5-min Rain = 0
KST2 242313Z 01014KT 25/07 A2998 RMK A01 T02480073  RH  033%=      5-min Rain = 0
KST2 242314Z 02014KT 25/07 A2998 RMK A01 T02470072  RH  032%=      5-min Rain = 0
KST2 242315Z 01014KT 25/07 A2998 RMK A01 T02470071  RH  032%=      5-min Rain = 0
KST2 242316Z 01014KT 25/07 A2998 RMK A01 T02460072  RH  033%=      5-min Rain = 0
KST2 242317Z 01015KT 25/07 A2998 RMK A01 T02480074  RH  033%=      5-min Rain = 0
KST2 242318Z 01014KT 25/07 A2998 RMK A01 T02480073  RH  033%=      5-min Rain = 0
KST2 242319Z 00013KT 25/07 A2998 RMK A01 T02470074  RH  033%=      5-min Rain = 0
KST2 242320Z 36013KT 25/08 A2998 RMK A01 T02460075  RH  033%=      5-min Rain = 0
KST2 242321Z 01012KT 25/08 A2998 RMK A01 T02460076  RH  034%=      5-min Rain = 0
KST2 242322Z 01012KT 25/08 A2998 RMK A01 T02460076  RH  034%=      5-min Rain = 0
KST2 242323Z 01014KT 25/08 A2998 RMK A01 T02460076  RH  034%=      5-min Rain = 0
KST2 242324Z 01014KT 25/07 A2998 RMK A01 T02450074  RH  033%=      5-min Rain = 0
KST2 242325Z 00014KT 25/07 A2998 RMK A01 T02450073  RH  033%=      5-min Rain = 0
KST2 242326Z 01014KT 25/07 A2998 RMK A01 T02450074  RH  034%=      5-min Rain = 0
KST2 242327Z 02014KT 24/07 A2998 RMK A01 T02440074  RH  034%=      5-min Rain = 0
KST2 242328Z 02015KT 24/07 A2998 RMK A01 T02440073  RH  033%=      5-min Rain = 0
KST2 242329Z 03012KT 24/07 A2998 RMK A01 T02430072  RH  034%=      5-min Rain = 0
KST2 242330Z 04012KT 24/07 A2998 RMK A01 T02440073  RH  034%=      5-min Rain = 0
KST2 242331Z 03013KT 24/07 A2998 RMK A01 T02440074  RH  034%=      5-min Rain = 0
KST2 242332Z 03012KT 24/08 A2998 RMK A01 T02440075  RH  034%=      5-min Rain = 0
KST2 242333Z 01012KT 25/08 A2998 RMK A01 T02450075  RH  034%=      5-min Rain = 0
KST2 242334Z 01013KT 25/08 A2998 RMK A01 T02450077  RH  034%=      5-min Rain = 0
KST2 242335Z 01012KT 24/08 A2998 RMK A01 T02440077  RH  034%=      5-min Rain = 0
KST2 242336Z 01012KT 24/08 A2998 RMK A01 T02440075  RH  034%=      5-min Rain = 0
KST2 242337Z 01012KT 24/08 A2998 RMK A01 T02430077  RH  035%=      5-min Rain = 0
KST2 242338Z 00012KT 24/08 A2998 RMK A01 T02430078  RH  035%=      5-min Rain = 0
KST2 242339Z 01013KT 24/08 A2998 RMK A01 T02440076  RH  034%=      5-min Rain = 0
KST2 242340Z 02012KT 24/08 A2998 RMK A01 T02430075  RH  034%=      5-min Rain = 0
KST2 242341Z 02012KT 24/07 A2998 RMK A01 T02420073  RH  034%=      5-min Rain = 0
KST2 242342Z 01011KT 24/07 A2998 RMK A01 T02410074  RH  034%=      5-min Rain = 0
KST2 242343Z 00012KT 24/08 A2998 RMK A01 T02410075  RH  035%=      5-min Rain = 0
KST2 242344Z 01011KT 24/08 A2998 RMK A01 T02410076  RH  035%=      5-min Rain = 0
KST2 242345Z 01013KT 24/08 A2998 RMK A01 T02410076  RH  035%=      5-min Rain = 0
KST2 242346Z 01013KT 24/07 A2998 RMK A01 T02410074  RH  034%=      5-min Rain = 0
KST2 242347Z 02010KT 24/07 A2998 RMK A01 T02410074  RH  034%=      5-min Rain = 0
KST2 242348Z 02012KT 24/07 A2998 RMK A01 T02410074  RH  034%=      5-min Rain = 0
KST2 242349Z 02013KT 24/07 A2999 RMK A01 T02410074  RH  034%=      5-min Rain = 0
KST2 242350Z 02012KT 24/07 A2999 RMK A01 T02410073  RH  034%=      5-min Rain = 0
KST2 242351Z 02014KT 24/07 A2999 RMK A01 T02410073  RH  034%=      5-min Rain = 0
KST2 242352Z 01013KT 24/07 A2999 RMK A01 T02400073  RH  034%=      5-min Rain = 0
KST2 242353Z 01013KT 24/07 A2999 RMK A01 T02400073  RH  034%=      5-min Rain = 0
KST2 242354Z 01013KT 24/07 A2999 RMK A01 T02390073  RH  034%=      5-min Rain = 0
KST2 242355Z 01013KT 24/07 A2999 RMK A01 T02390073  RH  035%=      5-min Rain = 0
KST2 242356Z 01013KT 24/07 A2999 RMK A01 T02380072  RH  035%=      5-min Rain = 0
KST2 242357Z 02013KT 24/07 A2999 RMK A01 T02380072  RH  034%=      5-min Rain = 0
KST2 242358Z 02013KT 24/07 A2999 RMK A01 T02380071  RH  034%=      5-min Rain = 0
KST2 242359Z 03013KT 24/07 A2999 RMK A01 T02370070  RH  034%=      5-min Rain = 0
KST2 250000Z 02014KT 24/07 A2999 RMK A01 T02370069  RH  034%=      5-min Rain = 0
KST2 250001Z 02013KT 24/07 A2999 RMK A01 T02370070  RH  034%=      5-min Rain = 0
KST2 250002Z 01012KT 24/07 A2999 RMK A01 T02370070  RH  034%=      5-min Rain = 0
KST2 250003Z 01013KT 24/07 A2999 RMK A01 T02360071  RH  035%=      5-min Rain = 0
KST2 250004Z 01014KT 24/07 A2999 RMK A01 T02360072  RH  035%=      5-min Rain = 0
KST2 250005Z 01014KT 24/07 A2999 RMK A01 T02350072  RH  035%=      5-min Rain = 0
KST2 250006Z 01013KT 24/07 A2999 RMK A01 T02350072  RH  035%=      5-min Rain = 0
KST2 250007Z 01012KT 23/07 A2999 RMK A01 T02340072  RH  035%=      5-min Rain = 0
KST2 250008Z 01011KT 23/07 A2999 RMK A01 T02330073  RH  036%=      5-min Rain = 0
KST2 250009Z 01012KT 23/07 A2999 RMK A01 T02330072  RH  035%=      5-min Rain = 0
KST2 250010Z 01012KT 23/07 A2999 RMK A01 T02330072  RH  035%=      5-min Rain = 0
KST2 250011Z 01014KT 23/07 A2999 RMK A01 T02330071  RH  035%=      5-min Rain = 0
KST2 250012Z 01013KT 23/07 A2999 RMK A01 T02320070  RH  035%=      5-min Rain = 0
KST2 250013Z 01012KT 23/07 A2999 RMK A01 T02320072  RH  036%=      5-min Rain = 0
KST2 250014Z 00013KT 23/07 A2999 RMK A01 T02320071  RH  036%=      5-min Rain = 0
KST2 250015Z 01012KT 23/07 A2999 RMK A01 T02320071  RH  036%=      5-min Rain = 0
KST2 250016Z 01012KT 23/07 A2999 RMK A01 T02310071  RH  036%=      5-min Rain = 0
KST2 250017Z 01012KT 23/07 A2999 RMK A01 T02310071  RH  036%=      5-min Rain = 0
KST2 250018Z 01011KT 23/07 A2999 RMK A01 T02300071  RH  036%=      5-min Rain = 0
KST2 250019Z 02013KT 23/07 A2999 RMK A01 T02300073  RH  036%=      5-min Rain = 0
KST2 250020Z 02013KT 23/07 A2999 RMK A01 T02300074  RH  037%=      5-min Rain = 0
KST2 250021Z 02013KT 23/07 A2999 RMK A01 T02300074  RH  037%=      5-min Rain = 0
KST2 250022Z 02014KT 23/07 A2999 RMK A01 T02290074  RH  037%=      5-min Rain = 0
KST2 250023Z 02013KT 23/07 A30 RMK A01 T02290074  RH  037%=      5-min Rain = 0
KST2 250024Z 02012KT 23/07 A30 RMK A01 T02280074  RH  037%=      5-min Rain = 0
KST2 250025Z 02013KT 23/07 A30 RMK A01 T02280074  RH  037%=      5-min Rain = 0
KST2 250026Z 02012KT 23/07 A30 RMK A01 T02270074  RH  037%=      5-min Rain = 0
KST2 250027Z 02013KT 23/07 A30 RMK A01 T02270074  RH  037%=      5-min Rain = 0
KST2 250028Z 02013KT 23/07 A30 RMK A01 T02270074  RH  037%=      5-min Rain = 0
KST2 250029Z 02013KT 23/08 A30 RMK A01 T02260076  RH  038%=      5-min Rain = 0
KST2 250030Z 03013KT 23/08 A30 RMK A01 T02260076  RH  038%=      5-min Rain = 0
KST2 250031Z 03013KT 23/08 A30 RMK A01 T02250077  RH  039%=      5-min Rain = 0
KST2 250032Z 03013KT 22/08 A30 RMK A01 T02240077  RH  039%=      5-min Rain = 0
KST2 250033Z 03011KT 22/08 A30 RMK A01 T02230078  RH  039%=      5-min Rain = 0
KST2 250034Z 03011KT 22/08 A30 RMK A01 T02220078  RH  040%=      5-min Rain = 0
KST2 250035Z 03010KT 22/08 A30 RMK A01 T02210079  RH  040%=      5-min Rain = 0
KST2 250036Z 03011KT 22/08 A30 RMK A01 T02200079  RH  040%=      5-min Rain = 0
KST2 250037Z 03010KT 22/08 A30 RMK A01 T02190078  RH  040%=      5-min Rain = 0
KST2 250038Z 03011KT 22/08 A30 RMK A01 T02190079  RH  040%=      5-min Rain = 0
KST2 250039Z 03010KT 22/08 A30 RMK A01 T02180079  RH  041%=      5-min Rain = 0
KST2 250040Z 03010KT 22/08 A30 RMK A01 T02170079  RH  041%=      5-min Rain = 0
KST2 250041Z 03010KT 22/08 A30 RMK A01 T02170078  RH  041%=      5-min Rain = 0
KST2 250042Z 03011KT 22/08 A30 RMK A01 T02160078  RH  041%=      5-min Rain = 0
KST2 250043Z 03010KT 22/08 A30 RMK A01 T02150078  RH  041%=      5-min Rain = 0
KST2 250044Z 03010KT 22/08 A30 RMK A01 T02150078  RH  041%=      5-min Rain = 0
KST2 250045Z 03010KT 21/08 A30 RMK A01 T02140078  RH  042%=      5-min Rain = 0
KST2 250046Z 03011KT 21/08 A30 RMK A01 T02140078  RH  042%=      5-min Rain = 0
KST2 250047Z 03010KT 21/08 A30 RMK A01 T02140078  RH  042%=      5-min Rain = 0
KST2 250048Z 03010KT 21/08 A30 RMK A01 T02130078  RH  042%=      5-min Rain = 0
KST2 250049Z 03010KT 21/08 A30 RMK A01 T02120078  RH  042%=      5-min Rain = 0
KST2 250050Z 03010KT 21/08 A30 RMK A01 T02120077  RH  042%=      5-min Rain = 0
KST2 250051Z 03010KT 21/08 A30 RMK A01 T02110078  RH  042%=      5-min Rain = 0
KST2 250052Z 03009KT 21/08 A30 RMK A01 T02100077  RH  042%=      5-min Rain = 0
KST2 250053Z 03010KT 21/08 A30 RMK A01 T02090077  RH  042%=      5-min Rain = 0
KST2 250054Z 03011KT 21/08 A30 RMK A01 T02080077  RH  043%=      5-min Rain = 0
KST2 250055Z 02011KT 21/08 A30 RMK A01 T02080077  RH  043%=      5-min Rain = 0
KST2 250056Z 02011KT 21/08 A30 RMK A01 T02080077  RH  043%=      5-min Rain = 0
KST2 250057Z 02011KT 21/08 A30 RMK A01 T02070076  RH  043%=      5-min Rain = 0
KST2 250058Z 02011KT 21/08 A30 RMK A01 T02070076  RH  043%=      5-min Rain = 0
KST2 250059Z 02011KT 21/08 A30 RMK A01 T02070076  RH  043%=      5-min Rain = 0
KST2 250100Z 02011KT 21/08 A30 RMK A01 T02060075  RH  043%=      5-min Rain = 0
KST2 250101Z 02010KT 21/08 A30 RMK A01 T02060075  RH  043%=      5-min Rain = 0
KST2 250102Z 02010KT 21/07 A30 RMK A01 T02050074  RH  043%=      5-min Rain = 0
KST2 250103Z 02010KT 21/07 A30 RMK A01 T02050074  RH  043%=      5-min Rain = 0
KST2 250104Z 03010KT 20/08 A30 RMK A01 T02040075  RH  043%=      5-min Rain = 0
KST2 250105Z 02010KT 20/08 A30 RMK A01 T02040075  RH  043%=      5-min Rain = 0
KST2 250106Z 02010KT 20/08 A30 RMK A01 T02030075  RH  043%=      5-min Rain = 0
KST2 250107Z 03010KT 20/08 A30 RMK A01 T02030075  RH  044%=      5-min Rain = 0
KST2 250108Z 03010KT 20/07 A30 RMK A01 T02020074  RH  044%=      5-min Rain = 0
KST2 250109Z 03009KT 20/08 A30 RMK A01 T02010075  RH  044%=      5-min Rain = 0
KST2 250110Z 03009KT 20/08 A30 RMK A01 T02000075  RH  044%=      5-min Rain = 0
KST2 250111Z 03009KT 20/08 A30 RMK A01 T01990075  RH  045%=      5-min Rain = 0
KST2 250112Z 03009KT 20/08 A30 RMK A01 T01980075  RH  045%=      5-min Rain = 0
KST2 250113Z 03009KT 20/08 A30 RMK A01 T01970075  RH  045%=      5-min Rain = 0
KST2 250114Z 04009KT 20/07 A30 RMK A01 T01960074  RH  045%=      5-min Rain = 0
KST2 250115Z 04008KT 19/07 A30 RMK A01 T01940073  RH  045%=      5-min Rain = 0
KST2 250116Z 04008KT 19/07 A30 RMK A01 T01930073  RH  046%=      5-min Rain = 0
KST2 250117Z 04008KT 19/07 A30 RMK A01 T01920073  RH  046%=      5-min Rain = 0
KST2 250118Z 04008KT 19/07 A30 RMK A01 T01910072  RH  046%=      5-min Rain = 0
KST2 250119Z 04008KT 19/07 A30 RMK A01 T01900072  RH  046%=      5-min Rain = 0
KST2 250120Z 03009KT 19/07 A30 RMK A01 T01890072  RH  046%=      5-min Rain = 0
KST2 250121Z 03008KT 19/07 A30 RMK A01 T01890072  RH  047%=      5-min Rain = 0
KST2 250122Z 03008KT 19/07 A30 RMK A01 T01890072  RH  047%=      5-min Rain = 0
KST2 250123Z 03009KT 19/07 A30 RMK A01 T01880073  RH  047%=      5-min Rain = 0
KST2 250124Z 03009KT 19/07 A30 RMK A01 T01870074  RH  048%=      5-min Rain = 0
KST2 250125Z 03009KT 19/08 A30 RMK A01 T01870076  RH  048%=      5-min Rain = 0
KST2 250126Z 03008KT 19/08 A30 RMK A01 T01880077  RH  049%=      5-min Rain = 0
KST2 250127Z 03009KT 19/08 A30 RMK A01 T01870078  RH  049%=      5-min Rain = 0
KST2 250128Z 04009KT 19/08 A30 RMK A01 T01880079  RH  049%=      5-min Rain = 0
KST2 250129Z 04009KT 19/08 A30 RMK A01 T01870080  RH  050%=      5-min Rain = 0
KST2 250130Z 04009KT 19/08 A30 RMK A01 T01870081  RH  050%=      5-min Rain = 0
KST2 250131Z 04009KT 19/08 A30 RMK A01 T01880081  RH  050%=      5-min Rain = 0
KST2 250132Z 04009KT 19/08 A3001 RMK A01 T01880081  RH  050%=      5-min Rain = 0
KST2 250133Z 04009KT 19/08 A3001 RMK A01 T01880082  RH  050%=      5-min Rain = 0
KST2 250134Z 05008KT 19/08 A3001 RMK A01 T01880082  RH  050%=      5-min Rain = 0
KST2 250135Z 05007KT 19/08 A3001 RMK A01 T01880082  RH  050%=      5-min Rain = 0
KST2 250136Z 06007KT 19/08 A30 RMK A01 T01870081  RH  050%=      5-min Rain = 0
KST2 250137Z 06007KT 19/08 A30 RMK A01 T01870078  RH  049%=      5-min Rain = 0
KST2 250138Z 06007KT 19/08 A30 RMK A01 T01860078  RH  049%=      5-min Rain = 0
KST2 250139Z 05007KT 19/08 A30 RMK A01 T01860079  RH  050%=      5-min Rain = 0
KST2 250140Z 05007KT 19/08 A30 RMK A01 T01860079  RH  050%=      5-min Rain = 0
KST2 250141Z 06007KT 19/08 A30 RMK A01 T01850078  RH  050%=      5-min Rain = 0
KST2 250142Z 05007KT 18/08 A30 RMK A01 T01840078  RH  050%=      5-min Rain = 0
KST2 250143Z 05007KT 18/08 A30 RMK A01 T01840079  RH  050%=      5-min Rain = 0
KST2 250144Z 05008KT 18/08 A30 RMK A01 T01840079  RH  050%=      5-min Rain = 0
KST2 250145Z 05008KT 18/08 A30 RMK A01 T01840079  RH  050%=      5-min Rain = 0
KST2 250146Z 05008KT 18/08 A30 RMK A01 T01840079  RH  050%=      5-min Rain = 0
KST2 250147Z 05008KT 18/08 A3001 RMK A01 T01830078  RH  050%=      5-min Rain = 0
KST2 250148Z 06008KT 18/08 A3001 RMK A01 T01820078  RH  050%=      5-min Rain = 0
KST2 250149Z 06007KT 18/08 A3001 RMK A01 T01810077  RH  050%=      5-min Rain = 0
KST2 250150Z 06007KT 18/08 A3001 RMK A01 T01800076  RH  051%=      5-min Rain = 0
KST2 250151Z 06007KT 18/08 A3001 RMK A01 T01800076  RH  051%=      5-min Rain = 0
KST2 250152Z 06007KT 18/08 A3001 RMK A01 T01790076  RH  051%=      5-min Rain = 0
KST2 250153Z 06007KT 18/08 A3001 RMK A01 T01790076  RH  051%=      5-min Rain = 0
KST2 250154Z 06006KT 18/08 A3001 RMK A01 T01780075  RH  051%=      5-min Rain = 0
KST2 250155Z 06006KT 18/08 A3001 RMK A01 T01770075  RH  051%=      5-min Rain = 0
KST2 250156Z 06006KT 18/08 A3001 RMK A01 T01770076  RH  051%=      5-min Rain = 0
KST2 250157Z 06006KT 18/08 A3001 RMK A01 T01770075  RH  051%=      5-min Rain = 0
KST2 250158Z 06006KT 18/07 A3001 RMK A01 T01760074  RH  051%=      5-min Rain = 0
KST2 250159Z 07007KT 18/07 A3001 RMK A01 T01750074  RH  051%=      5-min Rain = 0
KST2 250200Z 07007KT 18/07 A3001 RMK A01 T01750074  RH  052%=      5-min Rain = 0
KST2 250201Z 07006KT 17/07 A3001 RMK A01 T01740074  RH  052%=      5-min Rain = 0
KST2 250202Z 07006KT 17/08 A3001 RMK A01 T01740075  RH  052%=      5-min Rain = 0
KST2 250203Z 07006KT 17/08 A3001 RMK A01 T01730075  RH  052%=      5-min Rain = 0
KST2 250204Z 07006KT 17/08 A3001 RMK A01 T01730076  RH  053%=      5-min Rain = 0
KST2 250205Z 06006KT 17/08 A3001 RMK A01 T01730076  RH  053%=      5-min Rain = 0
KST2 250206Z 06006KT 17/08 A3001 RMK A01 T01730076  RH  053%=      5-min Rain = 0
KST2 250207Z 06006KT 17/08 A3001 RMK A01 T01730075  RH  053%=      5-min Rain = 0
KST2 250208Z 06006KT 17/08 A3001 RMK A01 T01720075  RH  053%=      5-min Rain = 0
KST2 250209Z 06006KT 17/07 A3001 RMK A01 T01720074  RH  053%=      5-min Rain = 0
KST2 250210Z 07006KT 17/08 A3001 RMK A01 T01710075  RH  053%=      5-min Rain = 0
KST2 250211Z 07006KT 17/07 A3002 RMK A01 T01710074  RH  053%=      5-min Rain = 0
KST2 250212Z 07006KT 17/07 A3002 RMK A01 T01700073  RH  053%=      5-min Rain = 0
KST2 250213Z 07006KT 17/07 A3002 RMK A01 T01690073  RH  053%=      5-min Rain = 0
KST2 250214Z 07006KT 17/07 A3002 RMK A01 T01680072  RH  053%=      5-min Rain = 0
KST2 250215Z 07006KT 17/07 A3002 RMK A01 T01680072  RH  053%=      5-min Rain = 0
KST2 250216Z 07006KT 17/07 A3002 RMK A01 T01660071  RH  053%=      5-min Rain = 0
KST2 250217Z 07006KT 17/07 A3002 RMK A01 T01660071  RH  053%=      5-min Rain = 0
KST2 250218Z 06006KT 17/07 A3002 RMK A01 T01650070  RH  054%=      5-min Rain = 0
KST2 250219Z 06006KT 16/07 A3002 RMK A01 T01640071  RH  054%=      5-min Rain = 0
KST2 250220Z 06006KT 16/07 A3002 RMK A01 T01640071  RH  054%=      5-min Rain = 0
KST2 250221Z 06006KT 16/07 A3002 RMK A01 T01630070  RH  054%=      5-min Rain = 0
KST2 250222Z 06006KT 16/07 A3002 RMK A01 T01620071  RH  054%=      5-min Rain = 0
KST2 250223Z 07005KT 16/07 A3002 RMK A01 T01620070  RH  055%=      5-min Rain = 0
KST2 250224Z 07005KT 16/07 A3002 RMK A01 T01610070  RH  055%=      5-min Rain = 0
KST2 250225Z 07005KT 16/07 A3002 RMK A01 T01610069  RH  054%=      5-min Rain = 0
KST2 250226Z 08005KT 16/07 A3002 RMK A01 T01610069  RH  055%=      5-min Rain = 0
KST2 250227Z 08005KT 16/07 A3002 RMK A01 T01600068  RH  054%=      5-min Rain = 0
KST2 250228Z 08004KT 16/07 A3002 RMK A01 T01600068  RH  054%=      5-min Rain = 0
KST2 250229Z 08004KT 16/07 A3002 RMK A01 T01600069  RH  055%=      5-min Rain = 0
KST2 250230Z 07004KT 16/07 A3003 RMK A01 T01600068  RH  055%=      5-min Rain = 0
KST2 250231Z 07004KT 16/07 A3003 RMK A01 T01600069  RH  055%=      5-min Rain = 0
KST2 250232Z 07004KT 16/07 A3003 RMK A01 T01600071  RH  055%=      5-min Rain = 0
KST2 250233Z 07004KT 16/07 A3003 RMK A01 T01600071  RH  055%=      5-min Rain = 0
KST2 250234Z 06004KT 16/07 A3003 RMK A01 T01600071  RH  055%=      5-min Rain = 0
KST2 250235Z 06004KT 16/07 A3003 RMK A01 T01600071  RH  056%=      5-min Rain = 0
KST2 250236Z 05005KT 16/07 A3003 RMK A01 T01600072  RH  056%=      5-min Rain = 0
KST2 250237Z 05005KT 16/07 A3003 RMK A01 T01590073  RH  056%=      5-min Rain = 0
KST2 250238Z 05005KT 16/07 A3004 RMK A01 T01590074  RH  057%=      5-min Rain = 0
KST2 250239Z 05005KT 16/08 A3004 RMK A01 T01590076  RH  058%=      5-min Rain = 0
KST2 250240Z 05005KT 16/08 A3004 RMK A01 T01580078  RH  059%=      5-min Rain = 0
KST2 250241Z 04005KT 16/08 A3004 RMK A01 T01580078  RH  059%=      5-min Rain = 0
KST2 250242Z 04005KT 16/08 A3004 RMK A01 T01570077  RH  059%=      5-min Rain = 0
KST2 250243Z 04005KT 16/08 A3004 RMK A01 T01560077  RH  059%=      5-min Rain = 0
KST2 250244Z 04005KT 16/08 A3004 RMK A01 T01560078  RH  060%=      5-min Rain = 0
KST2 250245Z 04005KT 16/08 A3004 RMK A01 T01550075  RH  059%=      5-min Rain = 0
KST2 250246Z 04005KT 15/07 A3004 RMK A01 T01540074  RH  059%=      5-min Rain = 0
KST2 250247Z 04005KT 15/07 A3004 RMK A01 T01530072  RH  059%=      5-min Rain = 0
KST2 250248Z 04005KT 15/07 A3004 RMK A01 T01520071  RH  058%=      5-min Rain = 0
KST2 250249Z 04005KT 15/07 A3004 RMK A01 T01510070  RH  058%=      5-min Rain = 0
KST2 250250Z 05005KT 15/07 A3004 RMK A01 T01500070  RH  059%=      5-min Rain = 0
KST2 250251Z 05005KT 15/07 A3004 RMK A01 T01490069  RH  059%=      5-min Rain = 0
KST2 250252Z 05005KT 15/07 A3004 RMK A01 T01490068  RH  059%=      5-min Rain = 0
KST2 250253Z 05005KT 15/07 A3004 RMK A01 T01480068  RH  059%=      5-min Rain = 0
KST2 250254Z 05005KT 15/07 A3004 RMK A01 T01470068  RH  059%=      5-min Rain = 0
KST2 250255Z 05005KT 15/07 A3004 RMK A01 T01460068  RH  060%=      5-min Rain = 0
KST2 250256Z 05005KT 15/07 A3004 RMK A01 T01460072  RH  061%=      5-min Rain = 0
KST2 250257Z 04005KT 15/07 A3004 RMK A01 T01460073  RH  061%=      5-min Rain = 0
KST2 250258Z 04005KT 15/08 A3005 RMK A01 T01470075  RH  062%=      5-min Rain = 0
KST2 250259Z 04005KT 15/08 A3005 RMK A01 T01480075  RH  062%=      5-min Rain = 0
KST2 250300Z 04005KT 15/07 A3005 RMK A01 T01470070  RH  060%=      5-min Rain = 0
KST2 250301Z 04005KT 15/07 A3005 RMK A01 T01460068  RH  060%=      5-min Rain = 0
KST2 250302Z 04005KT 15/07 A3005 RMK A01 T01450068  RH  060%=      5-min Rain = 0
KST2 250303Z 04005KT 14/07 A3005 RMK A01 T01440067  RH  060%=      5-min Rain = 0
KST2 250304Z 04005KT 14/07 A3005 RMK A01 T01440067  RH  060%=      5-min Rain = 0
KST2 250305Z 04005KT 14/07 A3005 RMK A01 T01440068  RH  060%=      5-min Rain = 0
KST2 250306Z 04006KT 14/07 A3005 RMK A01 T01430068  RH  060%=      5-min Rain = 0
KST2 250307Z 04006KT 14/07 A3005 RMK A01 T01430067  RH  060%=      5-min Rain = 0
KST2 250308Z 04006KT 14/07 A3005 RMK A01 T01440069  RH  061%=      5-min Rain = 0
KST2 250309Z 04006KT 14/07 A3005 RMK A01 T01440069  RH  061%=      5-min Rain = 0
KST2 250310Z 04006KT 14/07 A3005 RMK A01 T01430070  RH  061%=      5-min Rain = 0
KST2 250311Z 04006KT 14/07 A3005 RMK A01 T01430069  RH  061%=      5-min Rain = 0
KST2 250312Z 04006KT 14/07 A3005 RMK A01 T01430070  RH  062%=      5-min Rain = 0
KST2 250313Z 04006KT 14/07 A3005 RMK A01 T01430070  RH  062%=      5-min Rain = 0
KST2 250314Z 04006KT 14/07 A3005 RMK A01 T01430071  RH  062%=      5-min Rain = 0
KST2 250315Z 04006KT 14/07 A3005 RMK A01 T01430071  RH  062%=      5-min Rain = 0
KST2 250316Z 05005KT 14/07 A3005 RMK A01 T01430071  RH  062%=      5-min Rain = 0
KST2 250317Z 05005KT 14/07 A3005 RMK A01 T01430072  RH  062%=      5-min Rain = 0
KST2 250318Z 05005KT 14/07 A3005 RMK A01 T01430072  RH  062%=      5-min Rain = 0
KST2 250319Z 05005KT 14/07 A3006 RMK A01 T01440074  RH  063%=      5-min Rain = 0
KST2 250320Z 05006KT 14/08 A3006 RMK A01 T01430075  RH  063%=      5-min Rain = 0
KST2 250321Z 05006KT 14/08 A3006 RMK A01 T01440075  RH  063%=      5-min Rain = 0
KST2 250322Z 05006KT 14/08 A3006 RMK A01 T01440075  RH  063%=      5-min Rain = 0
KST2 250323Z 06005KT 14/08 A3006 RMK A01 T01440075  RH  063%=      5-min Rain = 0
KST2 250324Z 05005KT 14/07 A3006 RMK A01 T01440074  RH  063%=      5-min Rain = 0
KST2 250325Z 06005KT 14/07 A3006 RMK A01 T01440074  RH  063%=      5-min Rain = 0
KST2 250326Z 06005KT 14/07 A3006 RMK A01 T01430074  RH  063%=      5-min Rain = 0
KST2 250327Z 06005KT 14/07 A3006 RMK A01 T01420074  RH  063%=      5-min Rain = 0
KST2 250328Z 06005KT 14/07 A3006 RMK A01 T01420074  RH  064%=      5-min Rain = 0
KST2 250329Z 06005KT 14/07 A3006 RMK A01 T01420074  RH  064%=      5-min Rain = 0
KST2 250330Z 06005KT 14/08 A3006 RMK A01 T01420075  RH  064%=      5-min Rain = 0
KST2 250331Z 07005KT 14/08 A3006 RMK A01 T01420075  RH  064%=      5-min Rain = 0
KST2 250332Z 07005KT 14/08 A3006 RMK A01 T01420075  RH  064%=      5-min Rain = 0
KST2 250333Z 07005KT 14/07 A3006 RMK A01 T01420074  RH  064%=      5-min Rain = 0
KST2 250334Z 06005KT 14/07 A3006 RMK A01 T01420074  RH  064%=      5-min Rain = 0
KST2 250335Z 06005KT 14/07 A3006 RMK A01 T01420074  RH  064%=      5-min Rain = 0
KST2 250336Z 05005KT 14/07 A3006 RMK A01 T01420073  RH  063%=      5-min Rain = 0
KST2 250337Z 05005KT 14/07 A3006 RMK A01 T01420072  RH  063%=      5-min Rain = 0
KST2 250338Z 05005KT 14/07 A3006 RMK A01 T01420072  RH  063%=      5-min Rain = 0
KST2 250339Z 05005KT 14/07 A3006 RMK A01 T01420071  RH  062%=      5-min Rain = 0
KST2 250340Z 05005KT 14/07 A3007 RMK A01 T01420073  RH  063%=      5-min Rain = 0
KST2 250341Z 05005KT 14/07 A3007 RMK A01 T01420073  RH  063%=      5-min Rain = 0
KST2 250342Z 05006KT 14/08 A3007 RMK A01 T01430075  RH  064%=      5-min Rain = 0
KST2 250343Z 05006KT 14/08 A3007 RMK A01 T01440076  RH  063%=      5-min Rain = 0
KST2 250344Z 05006KT 14/08 A3007 RMK A01 T01440075  RH  063%=      5-min Rain = 0
KST2 250345Z 05006KT 14/08 A3007 RMK A01 T01440075  RH  063%=      5-min Rain = 0
KST2 250346Z 06006KT 14/08 A3007 RMK A01 T01440075  RH  063%=      5-min Rain = 0
KST2 250347Z 06006KT 14/07 A3007 RMK A01 T01430074  RH  063%=      5-min Rain = 0
KST2 250348Z 05005KT 14/07 A3007 RMK A01 T01420073  RH  063%=      5-min Rain = 0
KST2 250349Z 05005KT 14/07 A3007 RMK A01 T01420073  RH  063%=      5-min Rain = 0
KST2 250350Z 05006KT 14/07 A3007 RMK A01 T01410074  RH  064%=      5-min Rain = 0
KST2 250351Z 05006KT 14/08 A3007 RMK A01 T01410075  RH  064%=      5-min Rain = 0
KST2 250352Z 05006KT 14/07 A3007 RMK A01 T01390073  RH  064%=      5-min Rain = 0
KST2 250353Z 06005KT 14/07 A3007 RMK A01 T01390074  RH  065%=      5-min Rain = 0
KST2 250354Z 06006KT 14/07 A3007 RMK A01 T01380074  RH  065%=      5-min Rain = 0
KST2 250355Z 06006KT 14/07 A3007 RMK A01 T01380070  RH  064%=      5-min Rain = 0
KST2 250356Z 06006KT 14/07 A3007 RMK A01 T01370070  RH  064%=      5-min Rain = 0
KST2 250357Z 06006KT 14/07 A3007 RMK A01 T01370071  RH  065%=      5-min Rain = 0
KST2 250358Z 05007KT 14/07 A3008 RMK A01 T01360067  RH  063%=      5-min Rain = 0
KST2 250359Z 05007KT 14/07 A3008 RMK A01 T01350067  RH  063%=      5-min Rain = 0
KST2 250400Z 05006KT 13/07 A3007 RMK A01 T01330065  RH  063%=      5-min Rain = 0
KST2 250401Z 05006KT 13/06 A3007 RMK A01 T01320064  RH  064%=      5-min Rain = 0
KST2 250402Z 06006KT 13/07 A3007 RMK A01 T01310066  RH  065%=      5-min Rain = 0
KST2 250403Z 05006KT 13/07 A3007 RMK A01 T01310067  RH  065%=      5-min Rain = 0
KST2 250404Z 05006KT 13/07 A3007 RMK A01 T01310066  RH  065%=      5-min Rain = 0
KST2 250405Z 05006KT 13/07 A3007 RMK A01 T01300068  RH  066%=      5-min Rain = 0
KST2 250406Z 05006KT 13/07 A3008 RMK A01 T01300071  RH  067%=      5-min Rain = 0
KST2 250407Z 05006KT 13/07 A3008 RMK A01 T01300070  RH  067%=      5-min Rain = 0
KST2 250408Z 06006KT 13/07 A3008 RMK A01 T01300071  RH  068%=      5-min Rain = 0
KST2 250409Z 06006KT 13/07 A3008 RMK A01 T01310073  RH  068%=      5-min Rain = 0
KST2 250410Z 06006KT 13/07 A3007 RMK A01 T01300072  RH  068%=      5-min Rain = 0
KST2 250411Z 06006KT 13/07 A3007 RMK A01 T01310074  RH  068%=      5-min Rain = 0
KST2 250412Z 05006KT 13/07 A3007 RMK A01 T01320074  RH  068%=      5-min Rain = 0
KST2 250413Z 05006KT 13/08 A3007 RMK A01 T01320075  RH  068%=      5-min Rain = 0
KST2 250414Z 05006KT 13/08 A3008 RMK A01 T01320076  RH  069%=      5-min Rain = 0
KST2 250415Z 05006KT 13/08 A3008 RMK A01 T01320076  RH  069%=      5-min Rain = 0
KST2 250416Z 05006KT 13/07 A3008 RMK A01 T01320074  RH  068%=      5-min Rain = 0
KST2 250417Z 05006KT 13/07 A3008 RMK A01 T01310070  RH  067%=      5-min Rain = 0
KST2 250418Z 05006KT 13/07 A3008 RMK A01 T01290069  RH  067%=      5-min Rain = 0
KST2 250419Z 05006KT 13/07 A3008 RMK A01 T01290071  RH  068%=      5-min Rain = 0
KST2 250420Z 05006KT 13/07 A3008 RMK A01 T01290074  RH  069%=      5-min Rain = 0
KST2 250421Z 05006KT 13/08 A3008 RMK A01 T01290075  RH  070%=      5-min Rain = 0
KST2 250422Z 05006KT 13/08 A3008 RMK A01 T01300077  RH  070%=      5-min Rain = 0
KST2 250423Z 05006KT 13/08 A3007 RMK A01 T01320079  RH  070%=      5-min Rain = 0
KST2 250424Z 05006KT 13/08 A3007 RMK A01 T01330078  RH  070%=      5-min Rain = 0
KST2 250425Z 05006KT 13/08 A3007 RMK A01 T01330078  RH  069%=      5-min Rain = 0
KST2 250426Z 04006KT 13/08 A3008 RMK A01 T01340077  RH  069%=      5-min Rain = 0
KST2 250427Z 04007KT 13/08 A3008 RMK A01 T01340077  RH  068%=      5-min Rain = 0
KST2 250428Z 04007KT 13/07 A3008 RMK A01 T01340072  RH  066%=      5-min Rain = 0
KST2 250429Z 04007KT 13/07 A3008 RMK A01 T01320069  RH  066%=      5-min Rain = 0
KST2 250430Z 05007KT 13/07 A3008 RMK A01 T01300067  RH  066%=      5-min Rain = 0
KST2 250431Z 05007KT 13/07 A3008 RMK A01 T01300069  RH  066%=      5-min Rain = 0
KST2 250432Z 05007KT 13/07 A3008 RMK A01 T01300069  RH  067%=      5-min Rain = 0
KST2 250433Z 05007KT 13/07 A3008 RMK A01 T01300069  RH  066%=      5-min Rain = 0
KST2 250434Z 05007KT 13/07 A3008 RMK A01 T01300067  RH  066%=      5-min Rain = 0
KST2 250435Z 04007KT 13/07 A3008 RMK A01 T01290068  RH  066%=      5-min Rain = 0
KST2 250436Z 04007KT 13/07 A3008 RMK A01 T01280066  RH  066%=      5-min Rain = 0
KST2 250437Z 04007KT 13/07 A3008 RMK A01 T01270066  RH  066%=      5-min Rain = 0
KST2 250438Z 04006KT 13/07 A3008 RMK A01 T01260066  RH  067%=      5-min Rain = 0
KST2 250439Z 04006KT 13/07 A3008 RMK A01 T01250065  RH  067%=      5-min Rain = 0
KST2 250440Z 05006KT 13/07 A3008 RMK A01 T01250066  RH  067%=      5-min Rain = 0
KST2 250441Z 05006KT 12/07 A3008 RMK A01 T01240067  RH  068%=      5-min Rain = 0
KST2 250442Z 05007KT 12/07 A3008 RMK A01 T01240068  RH  069%=      5-min Rain = 0
KST2 250443Z 05007KT 12/07 A3008 RMK A01 T01240069  RH  069%=      5-min Rain = 0
KST2 250444Z 04007KT 13/07 A3008 RMK A01 T01250069  RH  069%=      5-min Rain = 0
KST2 250445Z 04007KT 13/07 A3008 RMK A01 T01250070  RH  069%=      5-min Rain = 0
KST2 250446Z 04007KT 12/07 A3008 RMK A01 T01240066  RH  068%=      5-min Rain = 0
KST2 250447Z 04007KT 12/07 A3008 RMK A01 T01220065  RH  068%=      5-min Rain = 0
KST2 250448Z 05007KT 12/06 A3008 RMK A01 T01210064  RH  068%=      5-min Rain = 0
KST2 250449Z 06007KT 12/07 A3008 RMK A01 T01210066  RH  069%=      5-min Rain = 0
KST2 250450Z 06007KT 12/07 A3008 RMK A01 T01210067  RH  070%=      5-min Rain = 0
KST2 250451Z 06006KT 12/07 A3008 RMK A01 T01210068  RH  070%=      5-min Rain = 0
KST2 250452Z 05006KT 12/07 A3008 RMK A01 T01210068  RH  070%=      5-min Rain = 0
KST2 250453Z 05006KT 12/07 A3008 RMK A01 T01210067  RH  069%=      5-min Rain = 0
KST2 250454Z 05006KT 12/07 A3008 RMK A01 T01210065  RH  069%=      5-min Rain = 0
KST2 250455Z 05007KT 12/06 A3008 RMK A01 T01210064  RH  068%=      5-min Rain = 0
KST2 250456Z 05007KT 12/06 A3008 RMK A01 T01200064  RH  068%=      5-min Rain = 0
KST2 250457Z 05007KT 12/07 A3008 RMK A01 T01200065  RH  069%=      5-min Rain = 0
KST2 250458Z 05007KT 12/07 A3008 RMK A01 T01200065  RH  069%=      5-min Rain = 0
KST2 250459Z 05008KT 12/07 A3008 RMK A01 T01200065  RH  069%=      5-min Rain = 0

Page generated in 0.1201 seconds.